Not logged in
PANGAEA.
Data Publisher for Earth & Environmental Science

Mimouni, Mohamed (2013): Radiosonde measurements from station Tamanrasset (2013-04) [dataset]. National Meteorological Office of Algeria, PANGAEA, https://doi.org/10.1594/PANGAEA.811771

Always quote citation above when using data! You can download the citation in several formats below.

Published: 2013-05-17DOI registered: 2013-06-14

RIS CitationBibTeX Citation ShareShow MapGoogle Earth

Other version:
Mimouni, Mohamed (2013): BSRN Station-to-archive file for station Tamanrasset (2013-04). ftp://ftp.bsrn.awi.de/tam/tam0413.dat.gz
Coverage:
Latitude: 22.790300 * Longitude: 5.529200
Date/Time Start: 2013-04-01T00:00:00 * Date/Time End: 2013-04-30T12:00:00
Minimum ALTITUDE: 1377 m * Maximum ALTITUDE: 26000 m
Event(s):
TAM (Tamanrasset) * Latitude: 22.790300 * Longitude: 5.529200 * Date/Time: 2000-03-01T00:00:00 * Elevation: 1385.0 m * Location: Algeria * Method/Device: Monitoring station (MONS) * Comment: BSRN station no: 42; Surface type: desert, rock; Topography type: flat, rural; Horizon: doi:10.1594/PANGAEA.669526; Station scientist: Sidi BAIKA (s.baika@meteo.dz)
Comment:
Start location: Tamanrasset; Distance from radiation site: 10 km
Parameter(s):
#NameShort NameUnitPrincipal InvestigatorMethod/DeviceComment
DATE/TIMEDate/TimeGeocode
ALTITUDEAltitudemGeocode
Pressure, at given altitudePPPPhPaMimouni, MohamedRadiosonde, Vaisala, RS92
Temperature, airTTT°CMimouni, MohamedRadiosonde, Vaisala, RS92
Dew/frost pointTdTdTd°CMimouni, MohamedRadiosonde, Vaisala, RS92
Wind directiondddegMimouni, MohamedRadiosonde, Vaisala, RS92
Wind speedffm/sMimouni, MohamedRadiosonde, Vaisala, RS92
Size:
12973 data points

Data

Download dataset as tab-delimited text — use the following character encoding:


Date/Time

Altitude [m]

PPPP [hPa]

TTT [°C]

TdTdTd [°C]

dd [deg]

ff [m/s]
2013-04-01T00:00137786618.8-3.31801
2013-04-01T00:00150085322.9-5.91683
2013-04-01T00:00153585022.7-7.11704
2013-04-01T00:00200080518.8-7.51526
2013-04-01T00:00205780018.2-8.01487
2013-04-01T00:00232777515.7-7.81485
2013-04-01T00:00250075914.0-7.31345
2013-04-01T00:0030007159.7-7.92201
2013-04-01T00:0031787008.0-8.12702
2013-04-01T00:0040006330.5-11.22863
2013-04-01T00:0044266001.8-32.12547
2013-04-01T00:005000559-2.1-39.02686
2013-04-01T00:005500524-6.1-39.82658
2013-04-01T00:005868500-8.1-38.02839
2013-04-01T00:006000492-9.3-40.42859
2013-04-01T00:007000431-17.4-42.927311
2013-04-01T00:007552400-21.7-45.43028
2013-04-01T00:008000376-25.3-41.432012
2013-04-01T00:009000327-33.7-51.032116
2013-04-01T00:009598300-38.0-49.634121
2013-04-01T00:0010000283-40.7-53.635229
2013-04-01T00:0010830250-46.9-60.634941
2013-04-01T00:0011000244-48.4-62.734941
2013-04-01T00:0012000209-51.2-74.333616
2013-04-01T00:0012286200-51.8-78.231618
2013-04-01T00:0013000179-56.1-81.432323
2013-04-01T00:0014000153-60.1-86.928120
2013-04-01T00:0014111150-61.0-85.227521
2013-04-01T00:0015000130-66.7-87.928225
2013-04-01T00:0015472120-68.7-88.230019
2013-04-01T00:0016000110-72.7-90.428517
2013-04-01T00:0016544100-73.6-90.330117
2013-04-01T00:001700093-71.9-88.930215
2013-04-01T00:001716290-72.9-89.729113
2013-04-01T00:001784580-75.3-92.631312
2013-04-01T00:001800078-75.1-92.430210
2013-04-01T00:001821975-76.8-93.82718
2013-04-01T00:001861770-75.0-92.427713
2013-04-01T00:001900066-73.9-91.43127
2013-04-01T00:001951760-72.5-91.32942
2013-04-01T00:002000055-68.3-89.216510
2013-04-01T00:002060850-66.5-89.51769
2013-04-01T00:002198840-59.7-90.62342
2013-04-01T00:002200040-59.6-90.52322
2013-04-01T12:00137786627.9-1.11103
2013-04-01T12:00150085424.7-6.51103
2013-04-01T12:00153685024.3-5.81184
2013-04-01T12:00200080619.4-7.01614
2013-04-01T12:00206080018.0-7.0164
2013-04-01T12:00233077516.1-7.51394
2013-04-01T12:00250076014.3-8.31533
2013-04-01T12:0030007169.6-9.01705
2013-04-01T12:0031817007.9-9.91774
2013-04-01T12:0040006333.3-29.32924
2013-04-01T12:0044346002.2-31.82759
2013-04-01T12:005000559-2.0-34.924211
2013-04-01T12:005500525-6.0-41.82608
2013-04-01T12:005875500-8.7-41.825811
2013-04-01T12:006000492-9.3-40.425912
2013-04-01T12:007000432-14.7-46.228914
2013-04-01T12:007570400-19.9-39.430515
2013-04-01T12:008000377-23.5-43.030419
2013-04-01T12:009000328-31.5-40.230819
2013-04-01T12:009632300-36.5-45.832322
2013-04-01T12:0010000284-39.3-51.332824
2013-04-01T12:0010868250-46.9-55.833627
2013-04-01T12:0011000245-48.1-55.433628
2013-04-01T12:0012000210-53.6-73.033034
2013-04-01T12:0012313200-54.4-76.932729
2013-04-01T12:0013000180-54.6-80.332425
2013-04-01T12:0014000153-60.0-84.430718
2013-04-01T12:0014138150-61.2-85.429817
2013-04-01T12:0015000130-68.0-89.028021
2013-04-01T12:0015491120-71.0-90.129328
2013-04-01T12:0016000110-73.5-91.131521
2013-04-01T12:0016556100-76.5-92.730718
2013-04-01T12:001700093-75.9-92.231920
2013-04-01T12:001716490-76.0-92.331216
2013-04-01T12:001784680-76.9-93.92644
2013-04-01T12:001800078-78.3-95.02427
2013-04-01T12:001821475-78.7-95.42808
2013-04-01T12:001860870-78.3-95.13017
2013-04-01T12:001900065-72.3-90.13203
2013-04-01T12:001950960-69.1-89.82906
2013-04-01T12:002000055-64.7-88.03145
2013-04-01T12:002062550-61.8-92.1741
2013-04-01T12:002200040-59.7-90.61534
2013-04-01T12:002201040-59.6-90.51553
2013-04-01T12:002379930-60.5-91.21648
2013-04-01T12:002400029-61.2-91.71395
2013-04-02T00:00137786517.7-6.2501
2013-04-02T00:00150085324.4-7.92705
2013-04-02T00:00152785024.4-7.92576
2013-04-02T00:00200080520.2-7.22465
2013-04-02T00:00205180019.0-7.0254
2013-04-02T00:00232377517.3-8.72636
2013-04-02T00:00250075915.6-8.62627
2013-04-02T00:00300071510.8-9.52806
2013-04-02T00:0031787009.1-9.92826
2013-04-02T00:0040006333.8-21.32857
2013-04-02T00:0044356003.6-29.125711
2013-04-02T00:0050005590.3-40.12728
2013-04-02T00:005500525-2.9-42.428311
2013-04-02T00:005890500-5.8-41.727610
2013-04-02T00:006000493-6.6-42.32839
2013-04-02T00:007000433-13.2-37.628717
2013-04-02T00:007595400-18.5-38.927918
2013-04-02T00:008000379-21.3-45.027717
2013-04-02T00:009000330-29.6-48.127818
2013-04-02T00:009671300-35.5-44.228714
2013-04-02T00:0010000286-38.2-43.428312
2013-04-02T00:0010913250-45.7-51.231320
2013-04-02T00:0011000247-46.6-51.731622
2013-04-02T00:0012000212-52.6-66.732229
2013-04-02T00:0012365200-53.4-69.432831
2013-04-02T00:0013000181-55.7-76.632730
2013-04-02T00:0014000155-60.8-81.929620
2013-04-02T00:0014184150-61.1-83.628717
2013-04-02T00:0015000131-67.7-87.528120
2013-04-02T00:0015536120-71.7-88.727423
2013-04-02T00:0016000111-74.5-89.028820
2013-04-02T00:0016596100-75.4-89.828811
2013-04-02T00:001700093-74.4-88.931913
2013-04-02T00:001720890-74.9-90.03308
2013-04-02T00:001788780-77.8-92.41635
2013-04-02T00:001800078-78.6-93.11836
2013-04-02T00:001825475-79.6-93.92356
2013-04-02T00:001864770-77.1-91.32081
2013-04-02T00:001900066-73.9-89.1901
2013-04-02T00:001954060-73.8-90.52628
2013-04-02T00:002000056-65.9-86.01562
2013-04-02T00:002063650-64.3-87.82534
2013-04-02T00:002200040-62.2-92.42838
2013-04-02T00:002201640-62.2-92.42848
2013-04-02T00:002382230-57.2-88.98613
2013-04-02T12:00137786528.4-3.72906
2013-04-02T12:00150085325.9-9.32787
2013-04-02T12:00153185025.5-9.62768
2013-04-02T12:00200080521.2-9.32807
2013-04-02T12:00205780020.0-9.0286
2013-04-02T12:00232977517.6-10.12946
2013-04-02T12:00250076016.0-10.62916
2013-04-02T12:00300071611.0-11.12876
2013-04-02T12:0031847009.3-11.92856
2013-04-02T12:0040006345.6-33.525311
2013-04-02T12:0044436004.1-41.428211
2013-04-02T12:005000560-0.3-37.727813
2013-04-02T12:005500526-3.3-39.928614
2013-04-02T12:005895500-4.6-47.328717
2013-04-02T12:006000493-5.4-44.128518
2013-04-02T12:007000434-11.8-48.731019
2013-04-02T12:007610400-16.6-49.730015
2013-04-02T12:008000380-19.9-52.129915
2013-04-02T12:009000331-29.0-55.629716
2013-04-02T12:009692300-35.2-60.430418
2013-04-02T12:0010000287-37.6-59.130519
2013-04-02T12:0010937250-43.9-60.331128
2013-04-02T12:0011000248-44.5-60.731028
2013-04-02T12:0012000213-49.9-70.930828
2013-04-02T12:0012405200-52.1-75.031730
2013-04-02T12:0013000182-55.8-77.931330
2013-04-02T12:0014000155-62.5-83.330420
2013-04-02T12:0014216150-64.5-84.930020
2013-04-02T12:0015000132-69.8-87.227126
2013-04-02T12:0015552120-72.8-88.927624
2013-04-02T12:0016000111-74.8-90.529421
2013-04-02T12:0016609100-75.8-91.431119
2013-04-02T12:001700093-77.6-92.930414
2013-04-02T12:001721490-77.9-93.129913
2013-04-02T12:001788380-79.4-94.427910
2013-04-02T12:001800078-79.4-94.429412
2013-04-02T12:001825075-78.3-93.531211
2013-04-02T12:001864670-76.6-92.82614
2013-04-02T12:001900066-76.2-93.32024
2013-04-03T00:00137786418.4-8.7103
2013-04-03T00:00150085224.4-10.43308
2013-04-03T00:00152285024.4-10.53248
2013-04-03T00:00200080420.2-11.132210
2013-04-03T00:00204780019.0-11.0329
2013-04-03T00:00231977517.3-12.33139
2013-04-03T00:00250075915.5-13.73089
2013-04-03T00:00300071510.7-13.33067
2013-04-03T00:0031737008.9-14.83116
2013-04-03T00:0040006337.1-39.42939
2013-04-03T00:0044386004.2-41.32939
2013-04-03T00:0050005601.2-43.33237
2013-04-03T00:005500526-1.0-44.831710
2013-04-03T00:005898500-3.6-46.632014
2013-04-03T00:006000494-4.0-46.931114
2013-04-03T00:007000434-11.5-52.030116
2013-04-03T00:007619400-17.3-52.730218
2013-04-03T00:008000380-20.4-52.430119
2013-04-03T00:009000331-29.0-54.329117
2013-04-03T00:009699300-34.6-57.627517
2013-04-03T00:0010000287-36.4-61.328420
2013-04-03T00:0010955250-41.3-66.628524
2013-04-03T00:0011000248-41.6-66.828525
2013-04-03T00:0012000214-49.7-71.827824
2013-04-03T00:0012432200-52.9-73.428423
2013-04-03T00:0013000183-57.5-75.428123
2013-04-03T00:0014000156-64.8-80.828423
2013-04-03T00:0014228150-66.9-81.528421
2013-04-03T00:0015000132-70.6-83.228319
2013-04-03T00:0015554120-73.5-85.830321
2013-04-03T00:0016000111-74.1-86.731617
2013-04-03T00:0016616100-75.2-89.127410
2013-04-03T00:001700094-77.0-90.625313
2013-04-03T00:001722390-78.1-91.527712
2013-04-03T00:001789180-79.6-92.82938
2013-04-03T00:001800079-77.5-91.031510
2013-04-03T00:001826275-76.2-90.5304
2013-04-03T00:001866070-76.6-91.42565
2013-04-03T00:001900066-77.2-91.92364
2013-04-03T00:001955160-73.9-90.62532
2013-04-03T00:002000056-69.2-87.62696
2013-04-03T00:002063350-69.6-91.91993
2013-04-03T00:002200040-59.7-90.61271
2013-04-03T00:002200440-59.8-90.71161
2013-04-03T00:002380630-58.3-89.65913
2013-04-03T00:002400029-57.8-89.37612
2013-04-03T12:00137786528.2-6.23105
2013-04-03T12:00150085325.1-9.92977
2013-04-03T12:00153085024.7-11.73006
2013-04-03T12:00200080520.4-11.03235
2013-04-03T12:00205580019.0-11.0325
2013-04-03T12:00232677517.2-13.53147
2013-04-03T12:00250075915.6-12.73118
2013-04-03T12:00300071511.0-16.32857
2013-04-03T12:0031817009.5-20.62887
2013-04-03T12:0040006345.7-36.32796
2013-04-03T12:0044456004.5-41.12899
2013-04-03T12:0050005600.6-43.725711
2013-04-03T12:005500526-2.1-45.62489
2013-04-03T12:005901500-5.5-44.22489
2013-04-03T12:006000494-6.1-44.62459
2013-04-03T12:007000434-13.4-49.827910
2013-04-03T12:007611400-16.9-52.428811
2013-04-03T12:008000380-20.1-52.228712
2013-04-03T12:009000331-29.3-54.526615
2013-04-03T12:009692300-34.3-59.728617
2013-04-03T12:0010000287-36.4-62.728415
2013-04-03T12:0010945250-42.2-67.327720
2013-04-03T12:0011000248-42.6-67.627520
2013-04-03T12:0012000213-49.3-74.326719
2013-04-03T12:0012418200-52.6-75.425323
2013-04-03T12:0013000183-56.3-78.325524
2013-04-03T12:0014000156-64.2-83.526820
2013-04-03T12:0014221150-65.9-84.026920
2013-04-03T12:0015000132-69.7-86.329812
2013-04-03T12:0015553120-72.7-88.132013
2013-04-03T12:0016000111-75.0-90.03287
2013-04-03T12:0016610100-77.6-92.324810
2013-04-03T12:001700093-80.1-93.827711
2013-04-03T12:001720890-79.8-93.527810
2013-04-03T12:001787880-79.6-93.92915
2013-04-03T12:001800078-79.6-93.92745
2013-04-03T12:001824375-79.6-93.92203
2013-04-03T12:001863670-78.0-93.32794
2013-04-03T12:001900066-74.0-90.7373
2013-04-03T12:001953160-73.9-92.42647
2013-04-03T12:002000055-68.3-90.83276
2013-04-03T12:002062550-63.5-89.53565
2013-04-03T12:002199940-61.9-92.2499
2013-04-03T12:002200040-61.9-92.2499
2013-04-03T12:002378830-58.0-89.4855
2013-04-04T00:00137786417.2-11.4202
2013-04-04T00:00150085124.2-12.13296
2013-04-04T00:00151485024.2-12.13286
2013-04-04T00:00200080420.3-12.22985
2013-04-04T00:00203980019.0-12.0295
2013-04-04T00:00231077517.4-13.33014
2013-04-04T00:00250075815.7-13.62864
2013-04-04T00:00300071412.9-16.81366
2013-04-04T00:00316870011.6-17.91365
2013-04-04T00:0040006336.3-35.92697
2013-04-04T00:0044356003.4-41.82415
2013-04-04T00:0050005590.7-43.724711
2013-04-04T00:005500525-2.1-45.624614
2013-04-04T00:005891500-4.6-47.325116
2013-04-04T00:006000493-5.7-44.325315
2013-04-04T00:007000433-13.9-50.222216
2013-04-04T00:007600400-18.2-53.321116
2013-04-04T00:008000379-20.9-55.221815
2013-04-04T00:009000330-28.7-52.923917
2013-04-04T00:009680300-34.1-58.323916
2013-04-04T00:0010000287-36.8-61.623317
2013-04-04T00:0010928250-44.6-62.023117
2013-04-04T00:0011000247-45.2-61.923017
2013-04-04T00:0012000213-50.0-72.125121
2013-04-04T00:0012396200-52.3-75.225423
2013-04-04T00:0013000182-55.2-77.525519
2013-04-04T00:0014000155-61.6-82.526219
2013-04-04T00:0014214150-63.2-83.927417
2013-04-04T00:0015000132-69.4-85.325314
2013-04-04T00:0015553120-72.9-87.721415
2013-04-04T00:0016000111-74.9-88.822019
2013-04-04T00:0016610100-76.3-89.524112
2013-04-04T00:001700094-76.1-89.824210
2013-04-04T00:001721990-77.0-91.123411
2013-04-04T00:001789080-79.7-92.92595
2013-04-04T00:001800079-80.3-93.42695
2013-04-04T00:001825575-80.2-93.32297
2013-04-04T00:001864770-78.2-91.72255
2013-04-04T00:001900066-80.0-93.21527
2013-04-04T00:001952660-75.6-89.92611
2013-04-04T00:002000055-69.7-86.32049
2013-04-04T00:002061050-65.2-86.82252
2013-04-04T12:00137786430.8-5.72406
2013-04-04T12:00150085227.3-13.42489
2013-04-04T12:00152185027.1-13.52499
2013-04-04T12:00200080523.1-12.923410
2013-04-04T12:00205080022.0-13.0239
2013-04-04T12:00232477519.9-13.922010
2013-04-04T12:00250075918.4-13.722311
2013-04-04T12:00300071613.2-14.62199
2013-04-04T12:00318670011.2-14.52159
2013-04-04T12:0040006343.3-16.422410
2013-04-04T12:004442600-0.6-19.722210
2013-04-04T12:005000560-0.1-40.421011
2013-04-04T12:005500526-2.1-39.023511
2013-04-04T12:005893500-5.1-37.325313
2013-04-04T12:006000493-5.9-39.625414
2013-04-04T12:007000433-13.2-45.123522
2013-04-04T12:007602400-18.0-50.722123
2013-04-04T12:008000379-20.7-49.121923
2013-04-04T12:009000330-29.8-50.322918
2013-04-04T12:009678300-35.3-53.023216
2013-04-04T12:0010000286-37.8-51.023317
2013-04-04T12:0010923250-42.9-65.325428
2013-04-04T12:0011000247-43.6-65.925530
2013-04-04T12:0012000213-50.6-73.826633
2013-04-04T12:0012395200-53.1-74.627132
2013-04-04T12:0013000182-56.4-78.427635
2013-04-04T12:0014000155-63.4-81.924618
2013-04-04T12:0014202150-64.4-82.823318
2013-04-04T12:0015000132-69.0-86.524820
2013-04-04T12:0015540120-73.7-88.924621
2013-04-04T12:0016000111-76.2-90.524021
2013-04-04T12:0016596100-75.6-90.021616
2013-04-04T12:001700093-76.9-91.624610
2013-04-04T12:001720290-78.2-92.72565
2013-04-04T12:001786880-80.8-95.01709
2013-04-04T12:001800078-80.5-94.717810
2013-04-04T12:001823375-79.8-94.11968
2013-04-04T12:001862770-76.6-91.417413
2013-04-04T12:001900066-73.1-89.119112
2013-04-04T12:001952960-69.9-89.22419
2013-04-04T12:002000056-67.5-90.23168
2013-04-04T12:002062650-66.5-91.8854
2013-04-04T12:002199640-61.7-92.08711
2013-04-04T12:002200040-61.7-92.08711
2013-04-04T12:002379830-57.1-88.812711
2013-04-05T00:00137786319.1-12.03401
2013-04-05T00:00150085126.6-12.02726
2013-04-05T00:00150885026.6-12.02726
2013-04-05T00:00200080322.5-13.32788
2013-04-05T00:00203780022.0-13.0277
2013-04-05T00:00231077519.8-13.92687
2013-04-05T00:00250075818.0-14.02647
2013-04-05T00:00300071513.3-14.52609
2013-04-05T00:00317370011.6-14.225711
2013-04-05T00:0040006333.9-14.324012
2013-04-05T00:004433600-0.1-14.423315
2013-04-05T00:0050005590.1-40.222417
2013-04-05T00:005500525-2.7-35.421915
2013-04-05T00:005882500-6.2-35.323016
2013-04-05T00:006000493-7.1-35.923018
2013-04-05T00:007000433-13.7-43.822822
2013-04-05T00:007587400-18.5-46.122621
2013-04-05T00:008000378-21.5-47.221526
2013-04-05T00:009000330-28.6-40.223725
2013-04-05T00:009665300-33.5-56.825127
2013-04-05T00:0010000286-34.8-65.425730
2013-04-05T00:0010926250-42.0-50.926635
2013-04-05T00:0011000247-42.6-50.726635
2013-04-05T00:0012000213-49.9-62.826439
2013-04-05T00:0012400200-52.9-69.626536
2013-04-05T00:0013000182-57.6-72.526833
2013-04-05T00:0014000155-63.1-79.423327
2013-04-05T00:0014204150-65.0-81.022627
2013-04-05T00:0015000132-68.6-84.022930
2013-04-05T00:0015545120-69.9-85.724329
2013-04-05T00:0016000111-72.5-87.925623
2013-04-05T00:0016619100-73.7-89.721613
2013-04-05T00:001700094-76.7-92.120010
2013-04-05T00:001722690-78.7-93.219412
2013-04-05T00:001789080-82.4-95.221020
2013-04-05T00:001800078-81.7-94.620918
2013-04-05T00:001825475-78.9-91.720217
2013-04-05T00:001864770-79.7-93.018817
2013-04-05T00:001900066-74.7-88.623314
2013-04-05T00:001954360-73.0-89.02824
2013-04-05T00:002000056-74.0-91.51784
2013-04-05T00:002061250-68.3-88.02119
2013-04-05T00:002198340-61.5-88.01882
2013-04-05T00:002200040-61.5-88.01942
2013-04-05T00:002377830-58.6-89.9487
2013-04-05T00:002400029-56.9-88.64911
2013-04-05T12:00137786429.4-5.32707
2013-04-05T12:00150085226.3-10.52969
2013-04-05T12:00152085026.2-10.62969
2013-04-05T12:00200080421.1-10.426510
2013-04-05T12:00204780020.0-10.0269
2013-04-05T12:00231977518.1-11.725010
2013-04-05T12:00250075916.5-12.025011
2013-04-05T12:00300071513.0-12.222917
2013-04-05T12:00317770011.5-12.722417
2013-04-05T12:0040006334.0-13.722318
2013-04-05T12:0044376000.0-15.123019
2013-04-05T12:005000559-3.5-12.624022
2013-04-05T12:005500525-6.9-12.425521
2013-04-05T12:005874500-9.0-17.123622
2013-04-05T12:006000492-9.7-24.423324
2013-04-05T12:007000431-14.6-28.423823
2013-04-05T12:007568400-17.8-46.924421
2013-04-05T12:008000377-20.3-50.423518
2013-04-05T12:009000329-28.2-54.923725
2013-04-05T12:009656300-33.1-44.625633
2013-04-05T12:0010000286-36.0-44.225636
2013-04-05T12:0010916250-41.4-59.925339
2013-04-05T12:0011000247-42.1-59.325339
2013-04-05T12:0012000212-50.8-67.224942
2013-04-05T12:0012388200-54.3-68.724842
2013-04-05T12:0013000182-58.8-71.324742
2013-04-05T12:0014000154-66.0-75.924239
2013-04-05T12:0014174150-67.5-77.523839
2013-04-05T12:0015000131-70.2-82.125635
2013-04-05T12:0015500120-73.9-86.525527
2013-04-05T12:0016000110-73.4-86.524919
2013-04-05T12:0016558100-77.9-90.923320
2013-04-05T12:001700093-77.1-90.223922
2013-04-05T12:001716090-77.3-90.424622
2013-04-05T12:001783980-76.6-91.424114
2013-04-05T12:001800078-77.9-92.522914
2013-04-05T12:001820875-77.4-92.723913
2013-04-05T12:001860570-74.3-90.92449
2013-04-05T12:001900066-72.0-90.92796
2013-04-05T12:001951360-70.7-91.12288
2013-04-05T12:002000055-67.1-92.23055
2013-04-05T12:002060950-66.9-92.13004
2013-04-05T12:002198940-60.3-91.01187
2013-04-05T12:002200040-60.2-91.01208
2013-04-06T00:00137786419.0-10.02802
2013-04-06T00:00150085221.1-14.42917
2013-04-06T00:00151585021.1-14.42917
2013-04-06T00:00200080317.7-11.027010
2013-04-06T00:00203580017.0-11.02710
2013-04-06T00:00230577515.7-29.427212
2013-04-06T00:00250075715.0-41.026915
2013-04-06T00:00300071412.1-36.026423
2013-04-06T00:00315970010.7-37.026623
2013-04-06T00:0040006323.5-10.524526
2013-04-06T00:004417600-0.2-9.324027
2013-04-06T00:005000558-5.4-10.524727
2013-04-06T00:005500523-5.9-33.825625
2013-04-06T00:005854500-7.0-48.926125
2013-04-06T00:006000491-7.7-49.425826
2013-04-06T00:007000431-14.9-44.725528
2013-04-06T00:007556400-17.7-48.524229
2013-04-06T00:008000377-20.6-50.723931
2013-04-06T00:009000328-29.5-55.924030
2013-04-06T00:009638300-34.6-55.823933
2013-04-06T00:0010000285-37.3-58.824335
2013-04-06T00:0010893250-41.3-58.625649
2013-04-06T00:0011000246-42.3-58.425448
2013-04-06T00:0012000212-51.1-58.224949
2013-04-06T00:0012365200-54.3-62.025149
2013-04-06T00:0013000181-59.2-67.125249
2013-04-06T00:0014000154-63.9-79.424542
2013-04-06T00:0014158150-64.1-80.324641
2013-04-06T00:0015000131-68.5-85.326236
2013-04-06T00:0015504120-69.9-86.525628
2013-04-06T00:0016000110-73.1-89.124227
2013-04-06T00:0016573100-74.7-90.524327
2013-04-06T00:001700093-74.6-89.725625
2013-04-06T00:001718390-75.3-90.325625
2013-04-06T00:001785980-79.5-93.824721
2013-04-06T00:001800078-79.5-93.824920
2013-04-06T00:001822575-79.2-93.624819
2013-04-06T00:001861670-78.2-92.821711
2013-04-06T00:001900066-73.9-89.819312
2013-04-06T00:001952460-65.5-85.721312
2013-04-06T00:002000056-64.6-88.02615
2013-04-06T00:002063450-67.3-90.12087
2013-04-06T00:002199140-62.9-89.02138
2013-04-06T00:002200040-62.8-88.92128
2013-04-06T12:00137786423.1-8.93209
2013-04-06T12:00150085219.5-11.730611
2013-04-06T12:00151485019.4-11.830611
2013-04-06T12:00200080314.9-16.431612
2013-04-06T12:00203080014.0-19.03112
2013-04-06T12:00229777513.8-27.730520
2013-04-06T12:00250075715.1-40.928923
2013-04-06T12:00300071312.8-42.328721
2013-04-06T12:00315370011.5-43.228421
2013-04-06T12:0040006325.1-47.126524
2013-04-06T12:0044156002.0-49.128022
2013-04-06T12:005000558-1.0-51.027322
2013-04-06T12:005500524-5.1-53.626525
2013-04-06T12:005861500-7.4-55.126225
2013-04-06T12:006000491-8.0-55.526224
2013-04-06T12:007000431-14.7-54.226628
2013-04-06T12:007560400-19.3-57.426328
2013-04-06T12:008000377-23.6-60.426027
2013-04-06T12:009000328-31.6-60.826933
2013-04-06T12:009622300-35.9-62.426734
2013-04-06T12:0010000284-38.5-64.427136
2013-04-06T12:0010870250-42.9-66.526549
2013-04-06T12:0011000245-43.4-66.826451
2013-04-06T12:0012000211-51.4-62.225354
2013-04-06T12:0012339200-54.3-63.825454
2013-04-06T12:0013000180-59.0-73.225250
2013-04-06T12:0014000153-63.5-83.024846
2013-04-06T12:0014136150-64.4-83.724946
2013-04-07T00:00137786414.4-7.62003
2013-04-07T00:00150085118.4-7.82185
2013-04-07T00:00151385018.3-7.92205
2013-04-07T00:00200080321.0-37.328311
2013-04-07T00:00203380020.8-37.528711
2013-04-07T00:00230577518.7-38.730811
2013-04-07T00:00250075717.1-32.83089
2013-04-07T00:00300071412.9-35.52959
2013-04-07T00:00316470011.8-43.02899
2013-04-07T00:0040006325.0-40.828913
2013-04-07T00:0044266001.8-36.228414
2013-04-07T00:005000559-2.4-42.028018
2013-04-07T00:005500524-6.1-38.027714
2013-04-07T00:005866500-9.1-42.127216
2013-04-07T00:006000491-10.2-42.827516
2013-04-07T00:007000431-16.6-49.627023
2013-04-07T00:007554400-21.1-55.426522
2013-04-07T00:008000376-24.8-55.726224
2013-04-07T00:009000328-30.6-54.428333
2013-04-07T00:009617300-35.3-57.228136
2013-04-07T00:0010000284-37.8-58.428542
2013-04-07T00:0010864250-44.1-61.627949
2013-04-07T00:0011000245-44.9-63.527850
2013-04-07T00:0012000210-52.5-67.627446
2013-04-07T00:0012324200-53.7-71.626446
2013-04-07T00:0013000180-57.0-76.725845
2013-04-07T00:0014000153-63.6-82.126145
2013-04-07T00:0014131150-64.5-82.826443
2013-04-07T00:0015000130-66.0-86.127133
2013-04-07T00:0015487120-67.3-88.425928
2013-04-07T00:0016000110-70.2-90.728024
2013-04-07T00:0016570100-73.1-93.127723
2013-04-07T00:001700093-76.4-94.526820
2013-04-07T00:001717990-77.3-95.225620
2013-04-07T00:001786180-76.0-93.125519
2013-04-07T00:001800078-77.0-94.025820
2013-04-07T00:001823275-74.4-91.827318
2013-04-07T00:001863470-74.4-91.925211
2013-04-07T00:001900066-72.6-90.422014
2013-04-07T00:001953860-70.8-89.926211
2013-04-07T00:002000056-65.7-87.12495
2013-04-07T00:002063350-66.4-89.42018
2013-04-07T12:00137786428.0-7.82203
2013-04-07T12:00150085224.7-20.01925
2013-04-07T12:00152185024.4-20.31895
2013-04-07T12:00200080419.6-21.11982
2013-04-07T12:00204580019.0-23.0232
2013-04-07T12:00231677516.9-23.02633
2013-04-07T12:00250075815.1-24.32764
2013-04-07T12:00300071411.2-29.53126
2013-04-07T12:00317070010.3-30.22957
2013-04-07T12:0040006334.1-34.629512
2013-04-07T12:0044276001.7-36.329212
2013-04-07T12:005000559-2.4-45.828613
2013-04-07T12:005500524-5.1-41.228014
2013-04-07T12:005869500-8.3-43.628515
2013-04-07T12:006000492-9.2-50.428317
2013-04-07T12:007000431-14.1-47.828723
2013-04-07T12:007568400-19.0-47.927923
2013-04-07T12:008000377-21.9-47.527725
2013-04-07T12:009000329-30.8-50.427326
2013-04-07T12:009636300-36.8-51.427230
2013-04-07T12:0010000285-38.9-58.527637
2013-04-07T12:0010877250-44.2-66.428743
2013-04-07T12:0011000245-45.4-67.329044
2013-04-07T12:0012000211-54.1-65.228849
2013-04-07T12:0012331200-56.3-68.128246
2013-04-07T12:0013000180-58.8-78.227739
2013-04-07T12:0014000153-64.5-84.927038
2013-04-07T12:0014127150-65.4-84.527238
2013-04-07T12:0015000130-65.3-86.8
2013-04-07T12:0015483120-67.2-90.0
2013-04-07T12:0016000110-71.2-93.1
2013-04-07T12:0016560100-74.8-94.4
2013-04-07T12:001700093-77.0-96.1
2013-04-07T12:001716690-77.2-95.1
2013-04-07T12:001784080-77.1-95.0
2013-04-07T12:001800078-76.4-94.5
2013-04-07T12:001821275-75.5-93.7
2013-04-07T12:001861370-73.7-93.5
2013-04-07T12:001900066-72.1-92.2
2013-04-07T12:001952460-69.7-91.9
2013-04-07T12:002000055-66.6-91.8
2013-04-07T12:002062750-64.3-90.13078
2013-04-07T12:002200040-61.3-91.7
2013-04-07T12:002200340-61.3-91.7
2013-04-07T12:002379630-58.3-89.6
2013-04-08T00:00137786417.7-15.61104
2013-04-08T00:00150085223.1-14.61576
2013-04-08T00:00152185023.1-12.91626
2013-04-08T00:00200080419.2-21.31817
2013-04-08T00:00204280018.0-21.0186
2013-04-08T00:00231377516.5-21.21676
2013-04-08T00:00250075814.9-19.11584
2013-04-08T00:00300071410.6-21.01384
2013-04-08T00:00316770010.0-24.31394
2013-04-08T00:0040006324.7-47.42644
2013-04-08T00:0044266002.3-48.92386
2013-04-08T00:005000559-1.1-44.927512
2013-04-08T00:005500524-4.3-47.125012
2013-04-08T00:005873500-6.7-42.426311
2013-04-08T00:006000492-7.7-41.026512
2013-04-08T00:007000432-14.6-50.726217
2013-04-08T00:007576400-17.8-53.027023
2013-04-08T00:008000378-21.1-55.426826
2013-04-08T00:009000329-28.0-35.926524
2013-04-08T00:009661300-33.2-39.227928
2013-04-08T00:0010000286-35.9-42.128028
2013-04-08T00:0010915250-43.2-52.228227
2013-04-08T00:0011000247-44.0-53.128327
2013-04-08T00:0012000212-52.7-61.828335
2013-04-08T00:0012376200-55.9-63.728336
2013-04-08T00:0013000181-60.8-70.128635
2013-04-08T00:0014000154-66.0-76.726134
2013-04-08T00:0014152150-66.2-77.626232
2013-04-08T00:0015000130-65.6-82.126128
2013-04-08T00:0015501120-69.2-87.625728
2013-04-08T00:0016000110-72.3-90.126826
2013-04-08T00:0016573100-74.6-92.027821
2013-04-08T00:001700093-74.7-92.126214
2013-04-08T00:001718590-74.9-92.226111
2013-04-08T00:001787280-73.5-91.12592
2013-04-08T00:001800078-74.5-91.92014
2013-04-08T00:001824675-76.8-93.81805
2013-04-08T00:001864270-77.0-94.02884
2013-04-08T00:001900066-74.6-92.029211
2013-04-08T00:001954260-69.7-89.02375
2013-04-08T00:002000056-70.0-90.62698
2013-04-08T00:002063150-68.4-91.03492
2013-04-08T00:002199240-61.6-92.02866
2013-04-08T00:002200040-61.5-91.92886
2013-04-08T12:00137786626.8-6.11005
2013-04-08T12:00150085322.7-11.71206
2013-04-08T12:00153585022.3-12.11256
2013-04-08T12:00200080517.5-12.21325
2013-04-08T12:00205580016.0-12.0134
2013-04-08T12:00232477514.5-13.51434
2013-04-08T12:00250075913.2-15.51694
2013-04-08T12:00300071511.4-43.22724
2013-04-08T12:0031757009.9-37.52614
2013-04-08T12:0040006334.0-41.423711
2013-04-08T12:0044316001.4-39.32279
2013-04-08T12:005000559-0.8-44.726313
2013-04-08T12:005500525-4.5-43.524313
2013-04-08T12:005878500-7.0-48.924314
2013-04-08T12:006000492-7.8-45.824715
2013-04-08T12:007000432-15.2-43.526314
2013-04-08T12:007577400-18.2-38.626520
2013-04-08T12:008000378-20.2-44.126518
2013-04-08T12:009000330-27.4-41.927024
2013-04-08T12:009669300-33.5-42.327623
2013-04-08T12:0010000286-36.1-47.027325
2013-04-08T12:0010919250-44.8-53.227727
2013-04-08T12:0011000247-45.5-53.427827
2013-04-08T12:0012000212-52.3-61.728835
2013-04-08T12:0012378200-55.8-66.228937
2013-04-08T12:0013000181-61.1-68.629138
2013-04-08T12:0014000154-67.3-74.427730
2013-04-08T12:0014150150-67.3-75.226430
2013-04-08T12:0015000130-67.1-80.227332
2013-04-08T12:0015485120-71.1-86.827131
2013-04-08T12:0016000110-72.7-89.627625
2013-04-08T12:0016557100-73.3-91.024817
2013-04-08T12:001700093-74.7-92.123315
2013-04-08T12:001717190-75.8-93.024217
2013-04-09T00:00137786618.9-9.11104
2013-04-09T00:00150085422.4-12.01256
2013-04-09T00:00153885022.3-12.11287
2013-04-09T00:00200080618.4-12.51656
2013-04-09T00:00205880017.0-11.0165
2013-04-09T00:00232877515.6-13.71574
2013-04-09T00:00250075914.3-12.81243
2013-04-09T00:00300071510.2-15.342
2013-04-09T00:0031797008.6-15.8163
2013-04-09T00:0040006335.5-46.92766
2013-04-09T00:0044396003.5-37.92657
2013-04-09T00:005000560-0.9-31.12628
2013-04-09T00:005500525-3.8-40.324713
2013-04-09T00:005889500-6.5-40.125714
2013-04-09T00:006000493-7.4-40.825415
2013-04-09T00:007000433-14.0-40.225819
2013-04-09T00:007596400-15.8-35.426423
2013-04-09T00:008000379-19.4-31.126423
2013-04-09T00:009000331-26.4-41.026225
2013-04-09T00:009692300-33.1-42.426026
2013-04-09T00:0010000287-36.1-43.026125
2013-04-09T00:0010943250-43.6-50.727029
2013-04-09T00:0011000248-44.1-50.927129
2013-04-09T00:0012000213-51.5-64.226129
2013-04-09T00:0012405200-54.7-67.826831
2013-04-09T00:0013000182-60.3-67.127133
2013-04-09T00:0014000155-66.6-73.526733
2013-04-09T00:0014180150-67.1-75.025933
2013-04-09T00:0015000131-66.7-78.325628
2013-04-09T00:0015520120-68.7-85.524317
2013-04-09T00:0016000111-72.7-90.424315
2013-04-09T00:0016590100-74.8-92.222217
2013-04-09T00:001700093-76.3-93.423320
2013-04-09T00:001719990-76.4-93.525917
2013-04-09T00:001788480-74.5-91.92748
2013-04-09T00:001800078-75.3-93.62688
2013-04-09T00:001825975-74.3-92.82582
2013-04-09T00:001866070-75.7-93.92273
2013-04-09T00:001900066-74.8-93.21625
2013-04-09T00:001955760-74.6-93.01985
2013-04-09T00:002000056-71.1-90.21967
2013-04-09T00:002064250-65.9-91.32266
2013-04-09T00:002200040-59.8-90.72164
2013-04-09T00:002201140-59.7-90.62114
2013-04-09T12:00137786628.5-6.01308
2013-04-09T12:00150085424.6-11.814910
2013-04-09T12:00153685024.0-12.315110
2013-04-09T12:00200080619.9-12.61329
2013-04-09T12:00206080019.0-13.0138
2013-04-09T12:00233177516.6-13.91346
2013-04-09T12:00250076016.2-18.11975
2013-04-09T12:00300071612.2-15.42596
2013-04-09T12:00318870010.7-14.92647
2013-04-09T12:0040006355.2-3.127614
2013-04-09T12:0044536001.5-5.226312
2013-04-09T12:005000560-2.9-7.02499
2013-04-09T12:005500526-5.6-10.92509
2013-04-09T12:005894500-8.0-14.225010
2013-04-09T12:006000493-9.0-14.325410
2013-04-09T12:007000433-13.6-24.025320
2013-04-09T12:007599400-17.1-34.324622
2013-04-09T12:008000379-19.5-38.524425
2013-04-09T12:009000331-27.2-45.024027
2013-04-09T12:009690300-33.2-51.223029
2013-04-09T12:0010000287-35.6-52.223729
2013-04-09T12:0010942250-44.1-56.623330
2013-04-09T12:0011000248-44.6-57.423231
2013-04-09T12:0012000213-53.4-58.125033
2013-04-09T12:0012400200-54.2-66.626138
2013-04-09T12:0013000182-59.6-69.826139
2013-04-09T12:0014000155-68.3-74.426240
2013-04-09T12:0014176150-68.3-75.025838
2013-04-09T12:0015000131-67.2-78.724931
2013-04-09T12:0015511120-69.6-85.524225
2013-04-09T12:0016000111-73.3-90.123430
2013-04-09T12:0016578100-74.5-90.324226
2013-04-09T12:001700093-76.1-91.623523
2013-04-09T12:001718890-77.3-92.623621
2013-04-09T12:001786180-78.8-93.924114
2013-04-09T12:001800078-78.8-93.925415
2013-04-09T12:001822975-74.9-90.625011
2013-04-09T12:001863770-69.4-87.825110
2013-04-09T12:001900066-70.3-89.53465
2013-04-09T12:001955460-70.9-91.326510
2013-04-09T12:002000056-72.0-92.130312
2013-04-09T12:002064450-62.1-86.13126
2013-04-09T12:002200040-61.1-87.7357
2013-04-09T12:002202340-61.2-87.7398
2013-04-10T00:00137786522.3-8.41105
2013-04-10T00:00150085225.2-11.31418
2013-04-10T00:00152585025.1-11.41478
2013-04-10T00:00200080521.2-11.61679
2013-04-10T00:00205180020.0-12.0168
2013-04-10T00:00232477518.8-10.11927
2013-04-10T00:00250075917.7-10.12198
2013-04-10T00:00300071613.6-11.725511
2013-04-10T00:00318670012.0-12.325612
2013-04-10T00:0040006344.4-13.926318
2013-04-10T00:0044476000.3-14.826619
2013-04-10T00:005000560-2.5-9.625019
2013-04-10T00:005500525-5.9-11.424217
2013-04-10T00:005887500-9.3-12.424517
2013-04-10T00:006000493-10.1-13.524918
2013-04-10T00:007000432-13.3-58.925425
2013-04-10T00:007585400-16.5-31.224532
2013-04-10T00:008000378-20.2-32.024133
2013-04-10T00:009000330-27.8-39.825137
2013-04-10T00:009675300-33.4-42.524737
2013-04-10T00:0010000286-36.0-44.424437
2013-04-10T00:0010930250-43.3-57.023939
2013-04-10T00:0011000247-43.5-58.023939
2013-04-10T00:0012000213-49.7-67.524043
2013-04-10T00:0012402200-53.4-66.323943
2013-04-10T00:0013000182-59.1-66.424242
2013-04-10T00:0014000155-67.8-73.024444
2013-04-10T00:0014182150-69.4-74.724545
2013-04-10T00:0015000131-67.5-79.725738
2013-04-10T00:0015524120-69.2-83.924735
2013-04-10T00:0016000111-71.3-86.925033
2013-04-10T00:0016602100-70.9-88.127528
2013-04-10T00:001700094-72.7-89.626921
2013-04-10T00:001722190-74.6-91.126720
2013-04-10T00:001789880-79.0-94.124812
2013-04-10T00:001800079-79.5-94.524511
2013-04-10T00:001826375-79.8-94.72249
2013-04-10T00:001866170-73.2-89.227913
2013-04-10T00:001900066-71.4-87.72157
2013-04-10T00:001957060-72.2-90.02996
2013-04-10T00:002000056-69.7-88.03254
2013-04-10T00:002066050-64.6-86.3
2013-04-10T12:00137786529.5-6.61706
2013-04-10T12:00150085326.2-12.21469
2013-04-10T12:00152685025.9-12.51479
2013-04-10T12:00200080521.3-12.81858
2013-04-10T12:00205480020.0-13.0188
2013-04-10T12:00232677518.2-13.91676
2013-04-10T12:00250075916.5-14.01846
2013-04-10T12:00300071612.8-8.325710
2013-04-10T12:00318570011.3-9.625011
2013-04-10T12:0040006344.9-13.925518
2013-04-10T12:0044466000.8-14.425620
2013-04-10T12:005000560-4.3-13.125721
2013-04-10T12:005500525-6.3-38.226721
2013-04-10T12:005882500-7.5-39.126719
2013-04-10T12:006000493-7.9-36.627018
2013-04-10T12:007000432-14.0-44.026622
2013-04-10T12:007586400-17.9-53.126124
2013-04-10T12:008000378-21.6-53.326624
2013-04-10T12:009000330-29.1-61.226430
2013-04-10T12:009665300-33.6-54.225732
2013-04-10T12:0010000286-36.4-52.826134
2013-04-10T12:0010916250-43.2-59.225241
2013-04-10T12:0011000247-43.5-59.925242
2013-04-10T12:0012000212-51.8-67.025845
2013-04-10T12:0012382200-55.0-69.826044
2013-04-10T12:0013000181-58.5-74.325144
2013-04-10T12:0014000154-66.7-77.625247
2013-04-10T12:0014167150-66.9-78.924948
2013-04-10T12:0015000131-70.4-85.026745
2013-04-10T12:0015501120-71.1-86.127135
2013-04-10T12:0016000110-72.4-88.527232
2013-04-10T12:0016570100-75.6-91.327729
2013-04-10T12:001700093-71.1-88.226219
2013-04-10T12:001718690-72.8-90.525118
2013-04-10T12:001786780-76.0-93.125120
2013-04-10T12:001800078-75.6-92.825320
2013-04-10T12:001824075-77.4-94.324621
2013-04-10T12:001863870-74.3-91.830216
2013-04-10T12:001900066-72.0-90.928011
2013-04-10T12:001954760-71.6-91.8354
2013-04-10T12:002000056-67.9-88.9571
2013-04-10T12:002064250-65.2-88.53427
2013-04-10T12:002200040-58.8-85.94510
2013-04-10T12:002202140-58.8-85.94810
2013-04-11T00:00137786321.3-2.53302
2013-04-11T00:00150085125.2-5.13227
2013-04-11T00:00151685025.1-5.23257
2013-04-11T00:00200080421.4-3.92917
2013-04-11T00:00204280021.0-3.0286
2013-04-11T00:00231577519.5-4.02518
2013-04-11T00:00250075817.8-4.12449
2013-04-11T00:00300071513.1-4.024811
2013-04-11T00:00317870011.3-3.625613
2013-04-11T00:0040006333.9-7.225915
2013-04-11T00:0044376000.0-8.425918
2013-04-11T00:005000559-2.2-28.828116
2013-04-11T00:005500525-4.6-31.729118
2013-04-11T00:005878500-7.1-37.328616
2013-04-11T00:006000492-8.2-38.129015
2013-04-11T00:007000432-14.3-59.628817
2013-04-11T00:007581400-18.8-57.128618
2013-04-11T00:008000378-21.8-59.228821
2013-04-11T00:009000329-29.5-59.328024
2013-04-11T00:009656300-35.3-61.928124
2013-04-11T00:0010000285-38.5-66.028324
2013-04-11T00:0010897250-45.5-69.928026
2013-04-11T00:0011000246-46.5-70.627926
2013-04-11T00:0012000211-51.5-73.326938
2013-04-11T00:0012353200-53.0-77.226442
2013-04-11T00:0013000181-55.8-79.426849
2013-04-11T00:0014000154-63.6-80.526749
2013-04-11T00:0014159150-65.0-81.727049
2013-04-11T00:0015000130-71.0-85.527538
2013-04-11T00:0015488120-72.4-86.727032
2013-04-11T00:0016000110-72.7-88.126424
2013-04-11T00:0016556100-75.1-90.826431
2013-04-11T00:001700093-74.4-90.227726
2013-04-11T00:001716890-73.3-89.327820
2013-04-11T00:001785580-73.4-90.130423
2013-04-11T00:001800078-71.0-88.231620
2013-04-11T00:001823775-70.4-88.634512
2013-04-11T00:001864370-73.1-90.8554
2013-04-11T00:001900066-76.2-94.31624
2013-04-11T00:001953860-74.8-93.23203
2013-04-11T00:002000056-70.7-89.83148
2013-04-11T00:002062650-65.8-88.9784
2013-04-11T00:002199940-59.8-90.7421
2013-04-11T00:002200040-59.8-90.7421
2013-04-11T12:00137786430.8-0.72708
2013-04-11T12:00150085227.2-7.02838
2013-04-11T12:00151785027.0-7.22838
2013-04-11T12:00200080422.5-7.22758
2013-04-11T12:00204580022.0-7.0278
2013-04-11T12:00231977519.5-7.72499
2013-04-11T12:00250075917.9-8.22478
2013-04-11T12:00300071513.1-9.324311
2013-04-11T12:00318070011.6-9.423412
2013-04-11T12:0040006345.2-26.425011
2013-04-11T12:0044446001.4-29.32539
2013-04-11T12:005000560-2.4-28.02687
2013-04-11T12:005500525-2.9-52.32865
2013-04-11T12:005888500-5.9-44.53065
2013-04-11T12:006000493-6.9-45.23206
2013-04-11T12:007000433-14.7-48.23016
2013-04-11T12:007589400-19.4-48.23218
2013-04-11T12:008000378-22.6-48.13039
2013-04-11T12:009000329-30.6-58.328414
2013-04-11T12:009657300-35.9-62.429313
2013-04-11T12:0010000285-38.8-64.629114
2013-04-11T12:0010897250-45.7-70.028312
2013-04-11T12:0011000246-46.5-70.628212
2013-04-11T12:0012000211-51.4-74.426828
2013-04-11T12:0012354200-53.1-77.327230
2013-04-11T12:0013000181-57.2-80.527236
2013-04-11T12:0014000154-64.1-83.427540
2013-04-11T12:0014159150-65.2-83.427738
2013-04-11T12:0015000131-68.4-86.027028
2013-04-11T12:0015499120-70.4-88.627123
2013-04-11T12:0016000110-73.7-92.327923
2013-04-11T12:0016567100-76.3-93.427626
2013-04-11T12:001700093-76.0-93.130119
2013-04-11T12:001717690-74.6-92.029914
2013-04-11T12:001785880-76.1-93.229013
2013-04-11T12:001800078-75.7-92.931713
2013-04-11T12:001823275-74.8-92.233813
2013-04-11T12:001863370-73.8-92.42657
2013-04-11T12:001900066-73.3-93.230110
2013-04-11T12:001953860-69.8-90.41214
2013-04-11T12:002000056-69.3-91.7698
2013-04-11T12:002063150-65.1-90.7175
2013-04-11T12:002200040-60.8-91.46412
2013-04-11T12:002380830-56.9-88.71189
2013-04-11T12:002400029-55.7-87.81218
2013-04-12T00:00137786318.7-8.4901
2013-04-12T00:00150085126.8-8.6201
2013-04-12T00:00151185026.8-10.2141
2013-04-12T00:00200080422.8-9.12224
2013-04-12T00:00204180022.0-8.0224
2013-04-12T00:00231577519.8-7.52227
2013-04-12T00:00250075818.0-7.32307
2013-04-12T00:00300071513.3-8.524411
2013-04-12T00:00317770011.9-8.624312
2013-04-12T00:0040006334.4-18.52308
2013-04-12T00:0044386000.7-27.52384
2013-04-12T00:005000559-2.7-33.91954
2013-04-12T00:005500525-5.9-35.01975
2013-04-12T00:005877500-7.4-45.62017
2013-04-12T00:006000492-7.9-49.52058
2013-04-12T00:007000432-14.3-53.92387
2013-04-12T00:007579400-19.0-49.52518
2013-04-12T00:008000378-22.9-50.82567
2013-04-12T00:009000329-31.5-63.026412
2013-04-12T00:009642300-37.3-49.926511
2013-04-12T00:0010000285-40.8-50.427510
2013-04-12T00:0010876250-44.8-72.926520
2013-04-12T00:0011000245-45.5-76.126622
2013-04-12T00:0012000211-51.1-71.026933
2013-04-12T00:0012340200-53.4-72.926836
2013-04-12T00:0013000180-57.8-76.426834
2013-04-12T00:0014000154-64.1-80.928325
2013-04-12T00:0014140150-64.9-81.628423
2013-04-12T00:0015000130-67.6-85.327119
2013-04-12T00:0015486120-68.1-86.728217
2013-04-12T00:0016000110-70.9-90.029115
2013-04-12T00:0016566100-74.1-92.629713
2013-04-12T00:001700093-74.2-91.730910
2013-04-12T00:001717890-74.5-91.93276
2013-04-12T00:001785780-76.6-93.62877
2013-04-12T00:001800078-75.7-92.02483
2013-04-12T00:001823175-74.0-90.62578
2013-04-12T00:001863470-73.6-91.23098
2013-04-12T00:001900066-70.0-88.359
2013-04-12T12:00137786332.7-0.32109
2013-04-12T12:00150085129.4-6.72066
2013-04-12T12:00150985029.3-6.82076
2013-04-12T12:00200080424.3-6.82308
2013-04-12T12:00204180023.0-7.0238
2013-04-12T12:00231777521.1-7.42289
2013-04-12T12:00250075919.3-7.923810
2013-04-12T12:00300071514.5-8.82329
2013-04-12T12:00318270012.8-9.02439
2013-04-12T12:0040006344.6-10.321311
2013-04-12T12:0044456000.1-11.621412
2013-04-12T12:005000560-5.3-12.020210
2013-04-12T12:005500525-7.2-38.824011
2013-04-12T12:005876500-8.6-43.824511
2013-04-12T12:006000492-9.5-47.025011
2013-04-12T12:007000432-15.7-54.92329
2013-04-12T12:007568400-19.9-48.623312
2013-04-12T12:008000377-23.2-37.824013
2013-04-12T12:009000328-32.7-44.222514
2013-04-12T12:009625300-38.8-45.222414
2013-04-12T12:0010000284-42.3-46.423217
2013-04-12T12:0010855250-45.9-73.724323
2013-04-12T12:0011000245-47.0-72.624323
2013-04-12T12:0012000210-51.8-74.824126
2013-04-12T12:0012311200-53.3-77.524331
2013-04-12T12:0013000180-57.1-79.025433
2013-04-12T12:0014000153-61.7-82.624827
2013-04-12T12:0014121150-62.4-84.625225
2013-04-12T12:0015000130-66.8-88.025323
2013-04-12T12:0015474120-68.8-89.625616
2013-04-12T12:0016000110-71.7-91.926815
2013-04-12T12:0016549100-74.4-94.126412
2013-04-12T12:001700093-75.0-93.325415
2013-04-12T12:001716090-75.8-94.026715
2013-04-12T12:001783880-76.9-94.93167
2013-04-12T12:001800078-72.7-91.52794
2013-04-12T12:001821675-72.8-91.53554
2013-04-12T12:001862170-70.0-90.6223
2013-04-12T12:001900066-70.5-91.01438
2013-04-12T12:001953360-71.8-92.02442
2013-04-12T12:002000055-69.4-91.71052
2013-04-13T00:00137786321.5-3.01002
2013-04-13T00:00150085127.7-4.21642
2013-04-13T00:00150985027.7-4.21652
2013-04-13T00:00200080423.6-5.41854
2013-04-13T00:00204180023.0-5.0184
2013-04-13T00:00231677520.9-6.61757
2013-04-13T00:00250075919.0-7.31808
2013-04-13T00:00300071514.4-8.218210
2013-04-13T00:00318170012.6-8.518010
2013-04-13T00:0040006344.9-9.218710
2013-04-13T00:0044466000.7-9.619510
2013-04-13T00:005000560-4.7-10.020011
2013-04-13T00:005500525-9.4-13.019112
2013-04-13T00:005873500-12.9-14.520811
2013-04-13T00:006000492-13.8-16.321511
2013-04-13T00:007000431-17.0-38.325113
2013-04-13T00:007554400-22.3-34.924315
2013-04-13T00:008000376-26.1-37.125314
2013-04-13T00:009000327-33.0-57.527719
2013-04-13T00:009599300-37.8-54.027820
2013-04-13T00:0010000283-41.8-54.927920
2013-04-13T00:0010826250-48.4-62.328322
2013-04-13T00:0011000244-50.0-62.528223
2013-04-13T00:0012000209-52.5-70.526727
2013-04-13T00:0012270200-52.0-73.726227
2013-04-13T00:0013000179-54.9-80.525723
2013-04-13T00:0014000153-58.8-83.526322
2013-04-13T00:0014104150-59.7-84.226122
2013-04-13T00:0015000130-64.3-87.726815
2013-04-13T00:0015472120-67.3-90.124015
2013-04-13T00:0016000110-69.3-90.024919
2013-04-13T00:0016559100-71.7-91.928614
2013-04-13T00:001700093-73.8-92.42699
2013-04-13T00:001717690-75.2-93.52518
2013-04-13T00:001785880-74.8-93.22347
2013-04-13T00:001800078-75.1-92.42449
2013-04-13T00:001823375-74.2-91.72565
2013-04-13T00:001863670-74.1-91.62465
2013-04-13T00:001900066-71.4-89.41494
2013-04-13T00:001954660-70.3-89.51239
2013-04-13T00:002000056-68.1-89.01108
2013-04-13T00:002064250-65.1-88.41368
2013-04-13T00:002200040-59.0-86.11572
2013-04-13T00:002201440-59.0-86.11442
2013-04-13T12:00137786431.4-1.318012
2013-04-13T12:00150085227.8-7.918413
2013-04-13T12:00152585027.4-6.918414
2013-04-13T12:00200080523.0-7.818114
2013-04-13T12:00205580022.0-8.01813
2013-04-13T12:00232977520.0-8.217313
2013-04-13T12:00250076018.4-7.817014
2013-04-13T12:00300071613.9-4.718311
2013-04-13T12:00319270012.0-5.018511
2013-04-13T12:0040006354.9-7.219211
2013-04-13T12:0044566000.5-7.919510
2013-04-13T12:005000560-4.4-8.520410
2013-04-13T12:005500526-8.5-11.821312
2013-04-13T12:005886500-11.5-13.821512
2013-04-13T12:006000493-12.3-14.922012
2013-04-13T12:007000432-18.6-44.925510
2013-04-13T12:007562400-22.5-38.52527
2013-04-13T12:008000377-26.7-38.52618
2013-04-13T12:009000327-32.0-59.324313
2013-04-13T12:009612300-36.9-58.525218
2013-04-13T12:0010000284-40.2-63.124919
2013-04-13T12:0010845250-46.9-53.726121
2013-04-13T12:0011000244-48.2-54.726222
2013-04-13T12:0012000209-56.8-62.525530
2013-04-13T12:0012285200-56.5-69.426333
2013-04-13T12:0013000179-55.2-78.926643
2013-04-13T12:0014000153-61.2-85.326730
2013-04-13T12:0014101150-61.6-85.726027
2013-04-13T12:0015000130-65.4-88.625731
2013-04-13T12:0015468120-67.0-89.827223
2013-04-13T12:0016000110-70.5-92.626821
2013-04-14T00:00137786627.41.81705
2013-04-14T00:00150085427.3-1.51447
2013-04-14T00:00154085026.9-1.91488
2013-04-14T00:00200080622.9-2.616511
2013-04-14T00:00207080022.3-3.116812
2013-04-14T00:00234477519.7-3.816911
2013-04-14T00:00250076118.2-3.816913
2013-04-14T00:00300071713.5-5.117616
2013-04-14T00:00320670011.5-5.017816
2013-04-14T00:0040006364.3-6.618511
2013-04-14T00:004467600-0.2-7.618611
2013-04-14T00:005000561-4.7-8.82079
2013-04-14T00:005500526-8.6-10.32444
2013-04-14T00:005895500-11.7-14.32367
2013-04-14T00:006000493-12.3-15.02447
2013-04-14T00:007000432-19.7-26.425012
2013-04-14T00:007564400-24.0-26.523410
2013-04-14T00:008000377-27.1-30.02259
2013-04-14T00:009000327-35.2-38.721215
2013-04-14T00:009598300-38.6-54.224120
2013-04-14T00:0010000283-40.7-59.324324
2013-04-14T00:0010828250-47.4-58.026126
2013-04-14T00:0011000244-48.4-60.826529
2013-04-14T00:0012000209-53.1-69.126244
2013-04-14T00:0012279200-52.1-71.026245
2013-04-14T00:0013000179-56.2-77.026754
2013-04-14T00:0014000153-60.9-82.027636
2013-04-14T00:0014101150-61.3-83.727033
2013-04-14T00:0015000130-59.7-86.626622
2013-04-14T00:0015493120-62.3-92.525712
2013-04-14T00:0016000110-66.8-92.022914
2013-04-14T00:0016593100-70.4-94.724716
2013-04-14T00:001700093-71.6-93.424314
2013-04-14T00:001721690-72.2-93.924415
2013-04-14T00:001790380-75.7-95.122710
2013-04-14T00:001800079-76.1-95.422410
2013-04-14T00:001827675-76.2-95.523311
2013-04-14T00:001867670-73.7-92.32459
2013-04-14T00:001900066-69.5-88.91943
2013-04-14T00:001959460-68.7-91.21297
2013-04-14T00:002000056-68.4-90.9233
2013-04-14T00:002069750-63.5-89.51173
2013-04-14T12:00137786730.6-0.91402
2013-04-14T12:00150085527.1-5.81624
2013-04-14T12:00154985026.7-6.11594
2013-04-14T12:00200080722.4-7.31445
2013-04-14T12:00207780021.0-7.0145
2013-04-14T12:00235077519.0-7.31585
2013-04-14T12:00250076217.6-7.71665
2013-04-14T12:00300071812.8-8.31546
2013-04-14T12:00321070010.9-7.81646
2013-04-14T12:0040006364.2-9.220510
2013-04-14T12:004469600-0.2-13.122112
2013-04-14T12:005000561-4.9-14.720912
2013-04-14T12:005500526-9.3-16.219613
2013-04-14T12:005895500-12.0-17.819510
2013-04-14T12:006000493-12.5-18.419610
2013-04-14T12:007000432-18.6-25.42139
2013-04-14T12:007568400-23.1-29.123910
2013-04-14T12:008000377-26.8-32.824310
2013-04-14T12:009000327-35.0-41.624614
2013-04-14T12:009602300-40.1-47.024818
2013-04-14T12:0010000283-43.5-49.325014
2013-04-14T12:0010818250-50.7-56.326321
2013-04-14T12:0011000243-49.2-64.327030
2013-04-14T12:0012000209-49.6-74.626750
2013-04-14T12:0012277200-51.4-76.027051
2013-04-14T12:0013000179-55.7-81.127350
2013-04-14T12:0014000152-61.9-84.227433
2013-04-14T12:0014099150-62.3-86.226931
2013-04-14T12:0015000129-67.8-88.824338
2013-04-14T12:0015457120-65.6-88.726034
2013-04-14T12:0016000110-66.2-89.227323
2013-04-14T12:0016555100-70.1-94.527220
2013-04-14T12:001700093-71.9-93.624817
2013-04-14T12:001717890-71.9-93.626419
2013-04-14T12:001786880-73.5-94.926912
2013-04-14T12:001800078-73.7-95.126411
2013-04-14T12:001824575-71.3-93.22538
2013-04-14T12:001865670-69.5-91.8604
2013-04-14T12:001900066-71.6-93.4312
2013-04-14T12:001957260-68.4-90.9723
2013-04-14T12:002000056-63.5-89.52265
2013-04-14T12:002068750-62.5-88.83216
2013-04-14T12:002200040-61.3-91.7478
2013-04-14T12:002206640-61.7-92.0539
2013-04-14T12:002386030-56.7-88.5878
2013-04-14T12:002400029-56.2-88.18412
2013-04-15T00:00137786725.44.0106
2013-04-15T00:00150085525.40.269
2013-04-15T00:00155085024.9-0.2610
2013-04-15T00:00200080721.6-3.63505
2013-04-15T00:00207680021.0-4.0353
2013-04-15T00:00234977519.0-7.32252
2013-04-15T00:00250076117.7-8.42043
2013-04-15T00:00300071813.1-9.31954
2013-04-15T00:00321070011.0-9.91835
2013-04-15T00:0040006363.4-11.32048
2013-04-15T00:004466600-1.2-11.918810
2013-04-15T00:005000561-6.7-12.618411
2013-04-15T00:005500526-11.4-13.819911
2013-04-15T00:005883500-13.3-16.319914
2013-04-15T00:006000492-14.0-16.819715
2013-04-15T00:007000431-19.7-22.023417
2013-04-15T00:007552400-23.7-25.823715
2013-04-15T00:008000376-27.6-30.725513
2013-04-15T00:009000326-35.6-39.722315
2013-04-15T00:009581300-40.6-44.423625
2013-04-15T00:0010000282-44.2-47.324727
2013-04-15T00:0010801250-46.3-68.126536
2013-04-15T00:0011000243-46.8-70.826540
2013-04-15T00:0012000209-50.1-73.427160
2013-04-15T00:0012273200-51.9-73.627160
2013-04-15T00:0013000179-55.3-79.027656
2013-04-15T00:0014000152-60.2-82.826539
2013-04-15T00:0014097150-60.9-83.426339
2013-04-15T00:0015000130-62.5-86.326138
2013-04-15T00:0015472120-65.1-88.427430
2013-04-15T00:0016000110-68.4-90.926426
2013-04-15T00:0016569100-68.8-91.327020
2013-04-15T00:001700093-70.7-92.727515
2013-04-15T00:001719590-71.5-93.327713
2013-04-15T00:001788780-73.3-93.224410
2013-04-15T00:001800079-73.3-93.225110
2013-04-15T00:001826675-73.2-93.12697
2013-04-15T00:001866870-73.8-93.62626
2013-04-15T00:001900066-75.2-93.52619
2013-04-15T00:001957460-69.3-90.02904
2013-04-15T12:00137786630.0-3.62007
2013-04-15T12:00150085426.6-8.82107
2013-04-15T12:00154285026.2-9.12117
2013-04-15T12:00200080621.7-8.92117
2013-04-15T12:00206980021.0-9.0217
2013-04-15T12:00234277518.4-9.52127
2013-04-15T12:00250076116.9-9.81996
2013-04-15T12:00300071712.0-10.91996
2013-04-15T12:00319970010.1-11.22088
2013-04-15T12:0040006352.2-12.42018
2013-04-15T12:004451600-2.2-13.12078
2013-04-15T12:005000560-7.4-14.21917
2013-04-15T12:005500525-12.0-15.31757
2013-04-15T12:005864500-13.8-16.11958
2013-04-15T12:006000491-14.5-16.121910
2013-04-15T12:007000430-21.7-25.723213
2013-04-15T12:007523400-25.5-28.124117
2013-04-15T12:008000374-28.8-32.423715
2013-04-15T12:009000325-37.4-43.724217
2013-04-15T12:009543300-39.9-67.126222
2013-04-15T12:0010000281-41.7-70.527326
2013-04-15T12:0010771250-47.1-72.727233
2013-04-15T12:0011000242-47.8-75.126738
2013-04-15T12:0012000207-52.1-78.426444
2013-04-15T12:0012228200-52.8-77.126748
2013-04-15T12:0013000177-55.8-81.226744
2013-04-15T12:0014000151-59.0-86.126541
2013-04-15T12:0014058150-58.6-85.826740
2013-04-15T12:0015000129-63.1-89.226932
2013-04-15T12:0015438120-65.8-91.227026
2013-04-15T12:0016000109-69.6-91.924918
2013-04-15T12:0016525100-72.1-93.825625
2013-04-15T12:001700092-72.9-92.926721
2013-04-15T12:001714490-72.5-92.526021
2013-04-15T12:001782880-75.6-95.027922
2013-04-15T12:001800078-71.0-91.430718
2013-04-15T12:001820975-70.7-91.132114
2013-04-15T12:001862270-65.9-89.0512
2013-04-15T12:001900066-67.2-92.3479
2013-04-15T12:001954860-68.8-93.5286
2013-04-15T12:002000056-64.6-90.3769
2013-04-15T12:002065650-64.7-90.4204
2013-04-15T12:002200040-62.0-88.3594
2013-04-15T12:002203640-62.1-88.4573
2013-04-16T00:00137786621.48.3906
2013-04-16T00:00150085421.62.9898
2013-04-16T00:00153785021.42.7928
2013-04-16T00:00200080517.41.51085
2013-04-16T00:00205880017.01.083
2013-04-16T00:00232777515.30.4313
2013-04-16T00:00250075913.7-0.73513
2013-04-16T00:0030007159.0-1.43435
2013-04-16T00:0031787007.5-1.73035
2013-04-16T00:0040006330.4-3.52768
2013-04-16T00:004423600-2.5-6.829310
2013-04-16T00:005000558-6.5-9.72799
2013-04-16T00:005500523-10.7-12.527313
2013-04-16T00:005842500-12.4-33.227514
2013-04-16T00:006000490-13.6-34.827714
2013-04-16T00:007000429-20.0-24.52777
2013-04-16T00:007508400-24.1-27.92323
2013-04-16T00:008000374-28.2-32.723910
2013-04-16T00:009000324-36.9-42.926110
2013-04-16T00:009533300-41.5-44.925214
2013-04-16T00:0010000280-44.5-60.726917
2013-04-16T00:0010751250-48.3-69.727429
2013-04-16T00:0011000241-49.1-72.627334
2013-04-16T00:0012000206-54.1-76.626843
2013-04-16T00:0012197200-54.8-77.226645
2013-04-16T00:0013000176-58.8-79.126853
2013-04-16T00:0014000150-55.7-83.627034
2013-04-16T00:0014018150-55.5-83.527033
2013-04-16T00:0015000128-62.4-88.626332
2013-04-16T00:0015413120-61.7-88.127925
2013-04-16T00:0016000109-64.2-90.026917
2013-04-16T00:0016528100-67.7-92.724817
2013-04-16T00:001700092-70.7-92.726313
2013-04-16T00:001715590-71.7-93.526512
2013-04-16T00:001785680-68.2-90.81924
2013-04-16T00:001800078-69.2-91.51906
2013-04-16T00:001824175-71.5-93.31977
2013-04-16T00:001864570-74.3-95.62336
2013-04-16T00:001900066-76.4-95.72577
2013-04-16T00:001954360-69.8-90.43534
2013-04-16T00:002000056-66.8-88.01942
2013-04-16T00:002064650-64.5-90.3322
2013-04-16T00:002200040-61.7-88.17610
2013-04-16T00:002201240-61.5-88.0789
2013-04-16T12:00137786330.21.72307
2013-04-16T12:00150085126.3-5.32189
2013-04-16T12:00150985026.3-5.32189
2013-04-16T12:00200080321.5-7.02317
2013-04-16T12:00203780021.0-7.0236
2013-04-16T12:00231077518.6-6.92237
2013-04-16T12:00250075816.7-7.72247
2013-04-16T12:00300071411.9-8.022410
2013-04-16T12:00316970010.3-8.421910
2013-04-16T12:0040006322.4-9.823712
2013-04-16T12:004422600-1.7-11.025610
2013-04-16T12:005000558-6.7-17.724911
2013-04-16T12:005500523-10.9-29.02358
2013-04-16T12:005839500-14.2-31.92279
2013-04-16T12:006000490-15.6-26.421910
2013-04-16T12:007000428-22.3-47.826812
2013-04-16T12:007493400-26.4-50.127612
2013-04-16T12:008000373-29.5-53.626715
2013-04-16T12:009000323-37.9-59.325917
2013-04-16T12:009510300-41.6-59.526321
2013-04-16T12:0010000279-44.7-65.726823
2013-04-16T12:0010726250-48.8-72.427129
2013-04-16T12:0011000240-50.2-72.227231
2013-04-16T12:0012000205-54.3-75.627136
2013-04-16T12:0012169200-53.9-76.526936
2013-04-16T12:0013000176-56.5-79.926242
2013-04-16T12:0013997150-59.0-86.126440
2013-04-16T12:0014000150-59.0-86.126440
2013-04-16T12:0015000128-61.2-87.726034
2013-04-16T12:0015386120-62.8-88.927132
2013-04-16T12:0016000109-64.8-90.427420
2013-04-16T12:0016496100-68.9-91.325916
2013-04-16T12:001700092-70.7-92.725821
2013-04-16T12:001712290-70.3-92.425923
2013-04-16T12:001781980-71.4-93.326819
2013-04-16T12:001800078-71.5-93.326317
2013-04-16T12:001820175-70.2-92.327213
2013-04-16T12:001861970-65.2-88.52482
2013-04-16T12:001900066-68.2-90.8911
2013-04-16T12:001954660-69.0-91.4205
2013-04-17T00:00137786220.4-5.43403
2013-04-17T00:00149585024.3-10.63284
2013-04-17T00:00150085024.3-10.53284
2013-04-17T00:00200080219.9-13.93009
2013-04-17T00:00202080019.0-12.0298
2013-04-17T00:00229177517.3-12.328511
2013-04-17T00:00250075615.5-11.027411
2013-04-17T00:00300071311.4-11.42549
2013-04-17T00:00314770010.1-11.824110
2013-04-17T00:0040006312.1-14.122014
2013-04-17T00:004400600-1.7-14.522114
2013-04-17T00:005000556-7.4-13.821317
2013-04-17T00:005500521-12.0-23.722116
2013-04-17T00:005816500-15.0-26.823016
2013-04-17T00:006000488-16.4-33.223517
2013-04-17T00:007000426-23.3-45.724316
2013-04-17T00:007463400-26.8-48.624915
2013-04-17T00:008000371-29.9-56.227018
2013-04-17T00:009000322-37.3-63.427323
2013-04-17T00:009483300-40.5-66.027924
2013-04-17T00:0010000278-43.9-68.627726
2013-04-17T00:0010704250-48.4-72.127424
2013-04-17T00:0011000239-50.4-72.426923
2013-04-17T00:0012000205-53.4-76.027035
2013-04-17T00:0012150200-53.6-77.726637
2013-04-17T00:0013000175-57.7-82.727142
2013-04-17T00:0013974150-59.0-86.126734
2013-04-17T00:0014000149-59.2-86.226733
2013-04-17T00:0015000127-63.4-89.426530
2013-04-17T00:0015355120-64.9-90.526928
2013-04-17T00:0016000108-66.2-91.526022
2013-04-17T00:0016459100-68.2-90.825326
2013-04-17T00:001700091-68.2-90.826719
2013-04-17T00:001709190-67.9-90.527016
2013-04-17T00:001780280-67.5-92.52845
2013-04-17T00:001800077-69.1-93.72733
2013-04-17T00:001818875-69.6-94.12043
2013-04-17T00:001859870-70.4-94.72184
2013-04-17T00:001900066-67.9-92.82973
2013-04-17T00:001952360-68.1-92.91794
2013-04-17T00:002000055-65.8-91.21327
2013-04-17T00:002062950-65.0-90.62665
2013-04-17T00:002200040-62.7-92.81388
2013-04-17T00:002200740-62.7-92.81388
2013-04-17T12:00137786227.7-2.22005
2013-04-17T12:00149985025.2-7.32087
2013-04-17T12:00150085025.2-7.32087
2013-04-17T12:00200080220.0-9.22158
2013-04-17T12:00202380019.0-9.0217
2013-04-17T12:00229577517.2-9.62179
2013-04-17T12:00250075715.2-9.62149
2013-04-17T12:00300071310.4-10.42438
2013-04-17T12:0031497008.9-10.12467
2013-04-17T12:0040006310.7-12.32167
2013-04-17T12:004397600-2.8-13.023111
2013-04-17T12:005000556-7.3-13.723023
2013-04-17T12:005500521-12.0-15.222824
2013-04-17T12:005811500-14.7-18.623023
2013-04-17T12:006000488-16.3-20.623623
2013-04-17T12:007000426-22.5-41.027515
2013-04-17T12:007463400-25.9-44.528616
2013-04-17T12:008000371-30.6-50.929018
2013-04-17T12:009000322-39.2-57.427820
2013-04-17T12:009470300-41.5-65.428228
2013-04-17T12:0010000277-42.7-69.228236
2013-04-17T12:0010694250-47.5-71.428730
2013-04-17T12:0011000239-48.7-72.328628
2013-04-17T12:0012000205-52.2-78.527241
2013-04-17T12:0012149200-53.2-79.327544
2013-04-17T12:0013000175-55.3-83.326939
2013-04-17T12:0013975150-59.6-86.626136
2013-04-17T12:0014000149-59.8-86.726137
2013-04-17T12:0015000127-62.9-89.026233
2013-04-17T12:0015353120-65.0-90.625928
2013-04-17T12:0016000108-68.2-93.026225
2013-04-17T12:0016451100-69.6-94.126623
2013-04-17T12:001700091-69.9-92.127521
2013-04-17T12:001707790-69.7-91.926921
2013-04-17T12:001778580-65.5-91.029511
2013-04-17T12:001800077-66.6-91.82967
2013-04-17T12:001817575-67.5-92.52759
2013-04-17T12:001859070-67.3-92.43085
2013-04-17T12:001900065-68.6-93.3516
2013-04-17T12:001951660-68.3-93.1875
2013-04-17T12:002000055-66.5-91.73584
2013-04-17T12:002061750-63.7-89.74810
2013-04-17T12:002200040-60.5-91.27110
2013-04-17T12:002200340-60.5-91.27110
2013-04-17T12:002381730-56.1-88.11294
2013-04-17T12:002400029-55.3-87.51404
2013-04-18T00:00137786118.1-8.9202
2013-04-18T00:00148885024.0-9.43534
2013-04-18T00:00150084924.0-9.43514
2013-04-18T00:00200080119.9-10.32834
2013-04-18T00:00201380019.0-10.0283
2013-04-18T00:00228577517.4-11.22505
2013-04-18T00:00250075615.4-11.92306
2013-04-18T00:00300071210.7-11.92217
2013-04-18T00:0031407009.3-12.52197
2013-04-18T00:0040006300.9-14.723710
2013-04-18T00:004388600-2.8-16.524012
2013-04-18T00:005000555-7.0-32.623710
2013-04-18T00:005500520-10.8-32.52439
2013-04-18T00:005804500-13.4-33.42479
2013-04-18T00:006000487-14.8-35.825410
2013-04-18T00:007000426-22.4-50.424211
2013-04-18T00:007460400-26.0-54.825916
2013-04-18T00:008000371-30.0-59.626316
2013-04-18T00:009000322-37.4-63.527020
2013-04-18T00:009478300-40.8-66.227722
2013-04-18T00:0010000278-43.3-68.126725
2013-04-18T00:0010702250-46.7-70.826736
2013-04-18T00:0011000239-49.4-70.526838
2013-04-18T00:0012000205-53.9-73.327941
2013-04-18T00:0012151200-53.6-75.027740
2013-04-18T00:0013000175-56.6-81.826939
2013-04-18T00:0013974150-61.3-87.926340
2013-04-18T00:0014000149-61.5-88.026340
2013-04-18T00:0015000127-64.0-87.528333
2013-04-18T00:0015344120-64.2-87.728427
2013-04-18T00:0016000108-65.7-88.927220
2013-04-18T00:0016450100-68.0-90.625519
2013-04-18T00:001700091-70.1-92.226220
2013-04-18T00:001708090-70.4-92.525819
2013-04-18T00:001778280-69.7-91.921410
2013-04-18T00:001800077-69.8-92.02218
2013-04-18T00:001816675-69.8-92.02437
2013-04-18T00:001857770-69.4-91.72836
2013-04-18T00:001900065-69.8-92.03497
2013-04-18T00:001949960-67.1-89.9612
2013-04-18T12:00137786029.6-5.21908
2013-04-18T12:00147585026.4-10.51939
2013-04-18T12:00150084825.9-10.819110
2013-04-18T12:00200080020.8-10.719810
2013-04-18T12:00200280020.0-10.01910
2013-04-18T12:00227477518.3-11.52099
2013-04-18T12:00250075516.1-11.32119
2013-04-18T12:00300071111.0-12.419210
2013-04-18T12:0031317009.8-12.71909
2013-04-18T12:0040006291.1-14.11838
2013-04-18T12:004381600-2.4-16.519911
2013-04-18T12:005000555-6.8-35.721011
2013-04-18T12:005500520-11.0-40.22288
2013-04-18T12:005798500-12.8-39.224010
2013-04-18T12:006000487-13.5-45.32608
2013-04-18T12:007000426-19.8-52.02968
2013-04-18T12:007470400-22.2-59.529813
2013-04-18T12:008000372-26.8-57.228719
2013-04-18T12:009000323-34.9-60.228324
2013-04-18T12:009512300-39.2-63.628823
2013-04-18T12:0010000279-42.9-66.428222
2013-04-18T12:0010737250-48.0-66.827627
2013-04-18T12:0011000240-48.9-69.227927
2013-04-18T12:0012000206-54.4-72.826932
2013-04-18T12:0012184200-55.7-73.927132
2013-04-18T12:0013000176-58.6-78.026137
2013-04-18T12:0013992150-60.9-87.626730
2013-04-18T12:0014000150-60.9-87.526730
2013-04-18T12:0015000127-66.1-91.526229
2013-04-18T12:0015355120-68.7-91.225433
2013-04-18T12:0016000108-69.6-91.926020
2013-04-18T12:0016444100-69.2-91.627621
2013-04-18T12:001700091-67.8-90.528517
2013-04-18T12:001707590-66.8-89.729015
2013-04-18T12:001778380-69.5-94.023911
2013-04-18T12:001800077-71.5-95.524212
2013-04-18T12:001816675-71.8-95.725911
2013-04-19T00:00137785918.5-7.81402
2013-04-19T00:00147385024.5-9.12204
2013-04-19T00:00150084724.7-8.92285
2013-04-19T00:00199880020.0-8.0245
2013-04-19T00:00200080020.4-8.92395
2013-04-19T00:00227077518.0-9.02505
2013-04-19T00:00250075415.8-9.12384
2013-04-19T00:00300071111.1-11.02374
2013-04-19T00:0031277009.8-10.92463
2013-04-19T00:0040006291.6-14.11862
2013-04-19T00:004378600-1.6-16.1974
2013-04-19T00:005000555-7.0-16.9838
2013-04-19T00:005500520-9.1-44.12075
2013-04-19T00:005800500-10.1-41.12526
2013-04-19T00:006000487-12.1-39.82669
2013-04-19T00:007000427-19.3-43.427911
2013-04-19T00:007477400-23.5-45.927912
2013-04-19T00:008000372-27.5-48.427413
2013-04-19T00:009000323-35.8-50.127216
2013-04-19T00:009511300-38.7-66.226524
2013-04-19T00:0010000279-41.6-66.826428
2013-04-19T00:0010742250-47.4-68.026223
2013-04-19T00:0011000240-49.0-70.225727
2013-04-19T00:0012000206-54.5-71.525437
2013-04-19T00:0012190200-55.4-73.725440
2013-04-19T00:0013000176-58.0-78.525538
2013-04-19T00:0013999150-60.7-85.026135
2013-04-19T00:0014000150-60.7-85.026135
2013-04-19T00:0015000128-64.1-89.926426
2013-04-19T00:0015372120-64.8-90.427325
2013-04-19T00:0016000108-66.5-91.726617
2013-04-19T00:0016475100-69.0-91.427316
2013-04-19T00:001700092-70.3-92.42669
2013-04-19T00:001710190-70.5-92.626510
2013-04-19T00:001779680-71.2-91.52438
2013-04-19T00:001800077-70.5-91.02448
2013-04-19T00:001817975-69.0-89.82817
2013-04-19T00:001859370-69.6-91.9981
2013-04-19T00:001900065-73.1-93.02515
2013-04-19T00:001950760-66.7-89.61051
2013-04-19T00:002000055-66.7-89.6577
2013-04-19T00:002061250-65.7-91.22126
2013-04-19T00:002199340-61.0-91.5933
2013-04-19T00:002200040-61.0-91.5933
2013-04-19T12:00137786129.0-2.11807
2013-04-19T12:00149085025.4-7.118812
2013-04-19T12:00150084925.4-7.118812
2013-04-19T12:00200080220.7-7.720311
2013-04-19T12:00201680020.0-7.02010
2013-04-19T12:00228977517.9-8.22107
2013-04-19T12:00250075615.7-8.52098
2013-04-19T12:00300071210.9-9.420410
2013-04-19T12:0031457009.5-10.12088
2013-04-19T12:0040006301.1-11.62118
2013-04-19T12:004394600-2.7-12.722910
2013-04-19T12:005000556-5.3-41.42398
2013-04-19T12:005500521-8.6-43.724412
2013-04-19T12:005819500-10.9-48.123814
2013-04-19T12:006000488-11.8-46.124212
2013-04-19T12:007000428-20.7-43.725311
2013-04-19T12:007488400-25.0-50.025413
2013-04-19T12:008000373-29.3-41.126013
2013-04-19T12:009000323-35.9-64.126515
2013-04-19T12:009517300-38.6-64.526628
2013-04-19T12:0010000280-41.5-68.326129
2013-04-19T12:0010748250-46.6-69.426030
2013-04-19T12:0011000241-48.2-70.625832
2013-04-19T12:0012000206-53.9-74.224936
2013-04-19T12:0012198200-54.0-78.025137
2013-04-19T12:0013000176-56.1-83.924638
2013-04-19T12:0014000151-60.4-87.126232
2013-04-19T12:0014020150-60.6-87.326232
2013-04-19T12:0015000128-66.0-91.426629
2013-04-19T12:0015385120-67.9-90.526424
2013-04-19T12:0016000108-69.3-91.627222
2013-04-19T12:0016476100-68.3-90.927618
2013-04-19T12:001700092-68.4-90.92689
2013-04-19T12:001711090-68.7-91.22477
2013-04-19T12:001780880-71.9-93.626010
2013-04-19T12:001800077-73.1-94.626710
2013-04-19T12:001818675-72.3-94.027712
2013-04-19T12:001860470-64.2-90.03387
2013-04-19T12:001900066-65.8-91.2874
2013-04-19T12:001953960-67.9-92.81264
2013-04-19T12:002000056-68.4-93.21863
2013-04-19T12:002064150-64.7-90.4367
2013-04-19T12:002200040-60.3-91.01186
2013-04-19T12:002201540-60.3-91.01196
2013-04-19T12:002381830-58.5-89.81322
2013-04-19T12:002400029-57.0-88.71264
2013-04-19T12:002497525-55.9-87.9535
2013-04-19T12:002500025-55.8-87.8505
2013-04-20T00:00137786018.7-9.3901
2013-04-20T00:00148385026.1-9.21473
2013-04-20T00:00150084826.2-9.11543
2013-04-20T00:00200080121.9-11.01613
2013-04-20T00:00201180021.0-11.0162
2013-04-20T00:00228477519.2-10.81694
2013-04-20T00:00250075617.0-11.61914
2013-04-20T00:00300071212.2-12.11935
2013-04-20T00:00314470010.8-12.61985
2013-04-20T00:0040006312.5-11.42039
2013-04-20T00:004399600-1.4-12.91999
2013-04-20T00:005000556-5.0-35.62367
2013-04-20T00:005500522-8.1-33.52438
2013-04-20T00:005827500-11.2-29.32438
2013-04-20T00:006000489-12.9-29.72429
2013-04-20T00:007000428-19.3-46.72414
2013-04-20T00:007498400-21.9-56.02596
2013-04-20T00:008000374-24.8-58.126514
2013-04-20T00:009000325-31.2-53.027728
2013-04-20T00:009560300-35.7-50.026833
2013-04-20T00:0010000282-39.2-47.626236
2013-04-20T00:0010801250-45.4-54.425945
2013-04-20T00:0011000243-47.1-57.225746
2013-04-20T00:0012000208-52.0-74.924347
2013-04-20T00:0012264200-53.4-76.124345
2013-04-20T00:0013000178-58.6-78.025240
2013-04-20T00:0014000152-65.1-81.726337
2013-04-20T00:0014059150-65.4-82.026437
2013-04-20T00:0015000129-66.2-86.226825
2013-04-20T00:0015412120-68.1-87.826922
2013-04-20T00:0016000109-70.8-89.928420
2013-04-20T00:0016494100-71.9-90.928916
2013-04-20T00:001700092-73.1-91.827716
2013-04-20T00:001711390-73.8-92.427817
2013-04-20T00:001780280-72.7-91.527411
2013-04-20T00:001800077-71.3-90.32939
2013-04-20T00:001818375-70.6-89.83256
2013-04-20T00:001859570-68.6-89.53208
2013-04-20T00:001900065-69.4-90.11864
2013-04-20T00:001951760-67.4-90.13478
2013-04-20T00:002000055-64.9-88.25012
2013-04-20T00:002062650-64.3-90.11897
2013-04-20T00:002199940-61.6-88.01865
2013-04-20T00:002200040-61.6-88.11865
2013-04-20T00:002379830-56.9-88.7985
2013-04-20T00:002400029-57.7-89.2573
2013-04-20T00:002495225-56.5-88.31365
2013-04-20T00:002500025-56.4-88.31324
2013-04-20T12:00137786230.5-2.02308
2013-04-20T12:00149885026.5-6.322112
2013-04-20T12:00150085026.5-6.322112
2013-04-20T12:00200080321.8-7.821715
2013-04-20T12:00202880021.0-7.02114
2013-04-20T12:00230077518.9-8.221314
2013-04-20T12:00250075717.1-8.120915
2013-04-20T12:00300071412.1-9.521613
2013-04-20T12:00316070010.5-9.721513
2013-04-20T12:0040006322.3-11.621512
2013-04-20T12:004414600-1.6-12.821312
2013-04-20T12:005000557-7.0-18.32229
2013-04-20T12:005500522-8.7-31.42219
2013-04-20T12:005836500-11.9-32.120911
2013-04-20T12:006000489-13.4-33.320811
2013-04-20T12:007000429-17.7-52.923818
2013-04-20T12:007513400-20.0-41.524117
2013-04-20T12:008000374-24.4-30.723917
2013-04-20T12:009000326-32.8-39.024417
2013-04-20T12:009569300-37.6-42.724121
2013-04-20T12:0010000282-39.5-54.524333
2013-04-20T12:0010810250-44.1-57.023749
2013-04-20T12:0011000243-45.3-52.823249
2013-04-20T12:0012000209-53.4-67.423547
2013-04-20T12:0012270200-55.3-71.123942
2013-04-20T12:0013000178-59.0-77.424732
2013-04-20T12:0014000152-63.9-84.425629
2013-04-20T12:0014068150-64.6-85.025630
2013-04-20T12:0015000129-65.7-88.926825
2013-04-20T12:0015422120-67.4-90.127020
2013-04-20T12:0016000109-69.2-93.826516
2013-04-20T12:0016512100-71.0-95.226414
2013-04-20T12:001700092-72.4-94.026715
2013-04-20T12:001713390-72.8-94.426613
2013-04-20T12:001782580-72.2-93.92949
2013-04-20T12:001800078-71.9-93.63288
2013-04-20T12:001820575-71.2-93.13344
2013-04-20T12:001861570-69.4-91.73024
2013-04-20T12:001900066-68.6-93.33164
2013-04-20T12:001954160-68.3-93.1903
2013-04-20T12:002000056-69.1-93.73474
2013-04-20T12:002064150-62.3-92.5418
2013-04-20T12:002200040-62.7-92.81457
2013-04-20T12:002201540-62.7-92.81468
2013-04-20T12:002380930-55.1-87.41929
2013-04-20T12:002400029-54.0-86.61909
2013-04-20T12:002497825-55.0-87.3872
2013-04-20T12:002500025-55.1-87.3912
2013-04-21T00:00137786120.9-5.81202
2013-04-21T00:00149085026.6-7.51932
2013-04-21T00:00150084926.5-7.51983
2013-04-21T00:00200080222.1-8.62305
2013-04-21T00:00201980022.0-7.0225
2013-04-21T00:00229277519.4-8.72186
2013-04-21T00:00250075617.4-8.62226
2013-04-21T00:00300071312.6-9.72278
2013-04-21T00:00315370011.1-9.82269
2013-04-21T00:0040006312.9-12.122610
2013-04-21T00:004409600-1.1-13.023311
2013-04-21T00:005000557-6.8-13.622312
2013-04-21T00:005500522-11.7-15.022113
2013-04-21T00:005827500-14.8-15.822114
2013-04-21T00:006000489-16.1-17.723015
2013-04-21T00:007000428-18.6-41.924419
2013-04-21T00:007499400-23.2-42.825319
2013-04-21T00:008000373-27.3-51.824518
2013-04-21T00:009000324-34.8-53.724428
2013-04-21T00:009536300-38.4-58.924134
2013-04-21T00:0010000280-39.8-62.823138
2013-04-21T00:0010776250-44.9-66.923436
2013-04-21T00:0011000242-46.8-66.623239
2013-04-21T00:0012000208-51.3-75.923834
2013-04-21T00:0012238200-52.3-78.623632
2013-04-21T00:0013000178-56.8-82.024632
2013-04-21T00:0014000151-60.0-84.425323
2013-04-21T00:0014057150-60.1-84.525523
2013-04-21T00:0015000129-64.5-90.225623
2013-04-21T00:0015430120-66.2-91.526718
2013-04-21T00:0016000109-68.9-91.327512
2013-04-21T00:0016522100-71.4-93.32869
2013-04-21T00:001700092-72.6-94.229311
2013-04-21T00:001714190-73.1-93.030612
2013-04-21T00:001782980-73.4-93.33477
2013-04-21T00:001800078-74.5-94.13378
2013-04-21T00:001820575-74.2-93.933110
2013-04-21T00:001860870-73.5-92.23537
2013-04-21T00:001900066-70.2-90.73053
2013-04-21T00:001952260-70.4-90.92105
2013-04-21T00:002000055-64.0-87.5217
2013-04-21T00:002063250-63.3-89.41405
2013-04-21T00:002200040-62.6-92.73232
2013-04-21T00:002200640-62.6-92.73142
2013-04-21T12:00137786231.11.522011
2013-04-21T12:00149785027.0-4.823113
2013-04-21T12:00150085026.9-4.823113
2013-04-21T12:00200080222.0-5.724012
2013-04-21T12:00202680021.0-5.02411
2013-04-21T12:00229977519.1-6.424312
2013-04-21T12:00250075717.1-6.024712
2013-04-21T12:00300071312.3-6.624014
2013-04-21T12:00315970010.7-7.124314
2013-04-21T12:0040006322.7-8.624911
2013-04-21T12:004415600-1.5-8.924311
2013-04-21T12:005000557-6.9-9.623515
2013-04-21T12:005500522-10.8-18.723613
2013-04-21T12:005834500-13.0-31.923310
2013-04-21T12:006000489-14.5-32.623310
2013-04-21T12:007000428-20.0-52.123417
2013-04-21T12:007500400-23.7-47.023419
2013-04-21T12:008000373-27.7-47.822319
2013-04-21T12:009000324-35.3-57.224725
2013-04-21T12:009532300-39.8-52.523724
2013-04-21T12:0010000280-44.3-54.123722
2013-04-21T12:0010748250-48.7-63.423322
2013-04-21T12:0011000241-47.8-68.323126
2013-04-21T12:0012000207-50.1-76.923724
2013-04-21T12:0012212200-51.5-80.623725
2013-04-21T12:0013000177-54.4-82.724620
2013-04-21T12:0014000151-57.9-85.324820
2013-04-21T12:0014050150-58.1-85.524820
2013-04-21T12:0015000129-63.3-89.325719
2013-04-21T12:0015432120-65.8-91.226218
2013-04-21T12:0016000109-68.3-90.927016
2013-04-21T12:0016524100-71.4-93.329112
2013-04-21T12:001700092-72.5-94.228410
2013-04-21T12:001714690-72.9-94.429812
2013-04-21T12:001783480-73.9-93.733610
2013-04-21T12:001800078-74.2-93.93449
2013-04-21T12:001821175-72.6-92.63268
2013-04-21T12:001861870-72.3-94.03143
2013-04-21T12:001900066-70.2-92.33405
2013-04-21T12:001953560-68.7-91.23587
2013-04-21T12:002000056-66.2-89.21226
2013-04-21T12:002063650-65.9-91.32584
2013-04-21T12:002200040-63.4-89.4833
2013-04-21T12:002200140-63.4-89.4833
2013-04-22T00:00137786018.5-7.03401
2013-04-22T00:00147885025.8-8.12635
2013-04-22T00:00150084825.7-9.52695
2013-04-22T00:00200080121.6-10.02596
2013-04-22T00:00200680021.0-10.0255
2013-04-22T00:00227977518.9-10.12485
2013-04-22T00:00250075516.8-10.82475
2013-04-22T00:00300071211.9-11.72475
2013-04-22T00:00313970010.6-11.42475
2013-04-22T00:0040006302.2-13.62375
2013-04-22T00:004392600-1.7-13.52366
2013-04-22T00:005000556-6.4-26.82426
2013-04-22T00:005500521-9.7-34.72556
2013-04-22T00:005813500-11.2-43.62459
2013-04-22T00:006000488-12.1-46.325110
2013-04-22T00:007000427-20.5-46.426712
2013-04-22T00:007484400-23.5-51.324715
2013-04-22T00:008000373-27.3-49.023621
2013-04-22T00:009000324-35.5-51.624725
2013-04-22T00:009519300-39.8-55.324827
2013-04-22T00:0010000279-43.8-53.724627
2013-04-22T00:0010738250-48.9-54.022733
2013-04-22T00:0011000240-50.2-60.323229
2013-04-22T00:0012000206-48.4-78.324319
2013-04-22T00:0012204200-49.7-79.224418
2013-04-22T00:0013000177-54.0-86.623421
2013-04-22T00:0014000151-59.3-86.324920
2013-04-22T00:0014046150-59.7-86.725021
2013-04-22T00:0015000129-63.8-89.725717
2013-04-22T00:0015420120-65.7-91.126719
2013-04-22T00:0016000109-68.8-93.526221
2013-04-22T00:0016516100-70.0-94.429116
2013-04-22T00:001700092-71.4-93.329915
2013-04-22T00:001713990-71.9-93.630113
2013-04-22T00:001783180-73.6-95.032811
2013-04-22T00:001800078-73.9-95.23298
2013-04-22T00:001820875-74.2-95.4265
2013-04-22T00:001860870-75.6-95.11832
2013-04-22T00:001900066-69.0-89.83366
2013-04-22T00:001952260-68.8-91.21285
2013-04-22T00:002000055-66.2-89.23387
2013-04-22T00:002062950-63.2-89.313010
2013-04-22T00:002200040-59.0-90.11998
2013-04-22T00:002200640-58.9-90.02008
2013-04-22T00:002381030-55.2-87.5288
2013-04-22T00:002400029-55.5-87.6834
2013-04-22T00:002498125-53.0-85.9673
2013-04-22T00:002500025-53.0-85.9803
2013-04-22T12:00137785926.88.81804
2013-04-22T12:00147285024.33.61936
2013-04-22T12:00150084723.93.31926
2013-04-22T12:00199780018.02.0215
2013-04-22T12:00200080018.92.82135
2013-04-22T12:00226877516.41.02354
2013-04-22T12:00250075415.2-6.32445
2013-04-22T12:00300071110.9-9.92796
2013-04-22T12:0031247009.7-10.42785
2013-04-22T12:0040006291.3-12.42715
2013-04-22T12:004375600-2.5-12.82734
2013-04-22T12:005000554-6.3-36.62438
2013-04-22T12:005500520-10.1-42.824911
2013-04-22T12:005795500-11.8-39.626113
2013-04-22T12:006000487-13.0-44.926113
2013-04-22T12:007000426-20.7-49.126412
2013-04-22T12:007463400-23.9-50.327013
2013-04-22T12:008000371-28.4-53.826211
2013-04-22T12:009000322-37.5-56.726112
2013-04-22T12:009487300-41.1-57.926315
2013-04-22T12:0010000278-45.3-61.525516
2013-04-22T12:0010707250-45.1-71.126722
2013-04-22T12:0011000239-47.4-72.927220
2013-04-22T12:0012000205-50.6-77.224723
2013-04-22T12:0012171200-50.8-80.125325
2013-04-22T12:0013000176-53.5-82.026123
2013-04-22T12:0014000150-58.4-89.724628
2013-04-22T12:0014014150-58.6-89.924629
2013-04-22T12:0015000128-62.4-92.525525
2013-04-22T12:0015396120-65.4-94.725029
2013-04-22T12:0016000109-67.5-92.526823
2013-04-22T12:0016494100-67.5-92.528215
2013-04-22T12:001700092-70.1-94.52597
2013-04-22T12:001712590-71.0-95.12537
2013-04-22T12:001781280-75.8-96.72909
2013-04-22T12:001800077-75.4-96.430511
2013-04-22T12:001818675-75.3-96.331812
2013-04-22T12:001859270-70.0-92.2984
2013-04-22T12:001900065-71.1-93.01628
2013-04-22T12:001950560-71.1-93.01936
2013-04-22T12:002000055-67.2-92.32263
2013-04-22T12:002060250-64.2-93.92697
2013-04-22T12:002198140-61.2-91.72403
2013-04-22T12:002200040-61.3-91.72493
2013-04-22T12:002378230-58.8-90.01178
2013-04-22T12:002400029-58.2-89.51299
2013-04-22T12:002493725-54.9-87.21254
2013-04-22T12:002500025-55.0-87.31155
2013-04-23T00:00137785821.2-1.33002
2013-04-23T00:00146185023.9-4.33064
2013-04-23T00:00150084623.5-5.43035
2013-04-23T00:00198680020.0-9.0299
2013-04-23T00:00200079919.8-9.329710
2013-04-23T00:00225777517.4-8.62979
2013-04-23T00:00250075315.2-6.92838
2013-04-23T00:00300071010.4-7.72677
2013-04-23T00:0031137009.3-8.32637
2013-04-23T00:0040006281.0-10.42209
2013-04-23T00:004363600-2.5-10.72328
2013-04-23T00:005000553-8.6-15.82148
2013-04-23T00:005500519-10.6-36.426314
2013-04-23T00:005778500-12.5-34.624612
2013-04-23T00:006000486-13.2-40.725113
2013-04-23T00:007000425-21.3-34.025515
2013-04-23T00:007447400-22.7-40.126121
2013-04-23T00:008000371-27.4-42.325123
2013-04-23T00:009000322-36.4-42.025825
2013-04-23T00:009481300-40.2-44.925930
2013-04-23T00:0010000278-44.0-52.625733
2013-04-23T00:0010701250-48.0-65.525234
2013-04-23T00:0011000239-49.8-68.324731
2013-04-23T00:0012000205-53.8-73.224238
2013-04-23T00:0012145200-54.0-75.324341
2013-04-23T00:0013000175-53.8-82.324541
2013-04-23T00:0013982150-57.5-89.124541
2013-04-23T00:0014000150-57.5-89.124641
2013-04-23T00:0015000128-60.1-90.926523
2013-04-23T00:0015377120-61.8-92.124817
2013-04-23T00:0016000108-64.5-94.123217
2013-04-23T00:0016490100-67.8-96.523313
2013-04-23T00:001700092-71.7-95.723817
2013-04-23T00:001711790-72.3-96.124416
2013-04-23T00:001780580-75.0-96.122516
2013-04-23T00:001800077-74.6-95.824114
2013-04-23T00:001818075-74.6-95.824210
2013-04-23T00:001858170-74.4-94.12768
2013-04-23T00:001900065-70.6-91.02867
2013-04-23T00:001949660-67.4-90.13056
2013-04-23T00:002000055-63.7-89.61986
2013-04-23T00:002061350-63.5-93.41222
2013-04-23T00:002198940-61.9-92.21673
2013-04-23T00:002200040-62.0-92.31633
2013-04-23T12:00137785828.5-4.82603
2013-04-23T12:00145585025.3-9.82379
2013-04-23T12:00150084625.0-10.02369
2013-04-23T12:00198180020.0-11.0216
2013-04-23T12:00200079820.2-11.12107
2013-04-23T12:00225377517.7-11.02156
2013-04-23T12:00250075315.3-11.22306
2013-04-23T12:00300070910.4-12.22397
2013-04-23T12:0031097009.3-12.52417
2013-04-23T12:0040006280.7-14.12294
2013-04-23T12:004357600-2.9-14.92165
2013-04-23T12:005000553-8.7-18.01976
2013-04-23T12:005500518-12.6-27.023211
2013-04-23T12:005769500-14.2-31.423712
2013-04-23T12:006000485-15.8-36.024816
2013-04-23T12:007000424-21.9-27.723323
2013-04-23T12:007428400-26.1-29.222823
2013-04-23T12:008000369-29.7-48.823225
2013-04-23T12:009000320-36.8-58.423734
2013-04-23T12:009451300-40.3-61.323637
2013-04-23T12:0010000277-44.6-66.723537
2013-04-23T12:0010668250-49.8-66.423136
2013-04-23T12:0011000238-51.0-66.823236
2013-04-23T12:0012000203-56.0-73.423634
2013-04-23T12:0012106200-56.1-73.623536
2013-04-23T12:0013000174-56.5-79.924146
2013-04-23T12:0013932150-56.8-84.525442
2013-04-23T12:0014000148-57.1-88.825441
2013-04-23T12:0015000127-56.9-88.624126
2013-04-23T12:0015344120-60.1-90.923724
2013-04-23T12:0016000108-65.8-95.022625
2013-04-23T12:0016456100-69.7-94.223125
2013-04-23T12:001700091-71.6-95.623625
2013-04-23T12:001708290-71.0-95.124225
2013-04-23T12:001778280-68.6-93.327410
2013-04-23T12:001800077-68.9-93.52358
2013-04-23T12:001816975-69.8-94.22188
2013-04-23T12:001857870-70.1-94.523512
2013-04-23T12:001900065-69.5-94.01985
2013-04-23T12:001950060-68.6-93.321411
2013-04-23T12:002000055-64.2-90.0
2013-04-23T12:002061550-61.2-91.7
2013-04-23T12:002200040-60.0-90.81352
2013-04-23T12:002200140-60.0-90.81352
2013-04-23T12:002382230-57.0-88.714310
2013-04-23T12:002400029-57.5-89.014412
2013-04-24T00:00137785820.9-5.01703
2013-04-24T00:00145485024.4-7.91976
2013-04-24T00:00150084524.5-7.82028
2013-04-24T00:00197980021.0-8.02111
2013-04-24T00:00200079821.0-8.421311
2013-04-24T00:00225277518.7-8.422213
2013-04-24T00:00250075316.4-8.622913
2013-04-24T00:00300070911.6-9.324015
2013-04-24T00:00311270010.6-9.724014
2013-04-24T00:0040006282.0-11.224516
2013-04-24T00:004366600-1.5-11.624216
2013-04-24T00:005000554-7.7-12.924116
2013-04-24T00:005500519-12.6-13.924617
2013-04-24T00:005781500-14.9-15.124517
2013-04-24T00:006000486-15.6-24.125018
2013-04-24T00:007000425-19.2-37.625919
2013-04-24T00:007455400-22.9-38.926721
2013-04-24T00:008000371-27.5-43.326621
2013-04-24T00:009000322-35.6-51.226820
2013-04-24T00:009491300-39.8-54.427023
2013-04-24T00:0010000278-43.0-62.727420
2013-04-24T00:0010714250-48.6-66.625119
2013-04-24T00:0011000239-50.8-67.224422
2013-04-24T00:0012000205-58.0-70.325232
2013-04-24T00:0012146200-58.8-70.725229
2013-04-24T00:0013000175-60.0-78.223439
2013-04-24T00:0013946150-60.5-83.125546
2013-04-24T00:0014000149-59.6-82.325747
2013-04-24T00:0015000127-59.1-90.225031
2013-04-24T00:0015339120-61.0-91.524430
2013-04-24T00:0016000108-64.9-94.322727
2013-04-24T00:0016454100-68.6-93.422131
2013-04-24T00:001700091-69.0-93.624825
2013-04-24T00:001708390-69.7-94.225024
2013-04-24T00:001778780-70.3-94.620215
2013-04-24T00:001800077-72.0-95.920117
2013-04-24T00:001816775-71.9-95.821318
2013-04-24T00:001857670-70.9-92.921720
2013-04-24T00:001900065-68.8-91.220413
2013-04-24T00:001950360-64.3-90.12654
2013-04-24T00:002000055-62.4-92.51727
2013-04-24T00:002061850-63.2-93.12027
2013-04-24T00:002200040-59.9-90.7
2013-04-24T00:002201440-59.9-90.7
2013-04-24T00:002382030-56.2-88.2639
2013-04-24T00:002400029-56.2-88.1
2013-04-24T12:00137786029.8-2.624011
2013-04-24T12:00148285026.8-8.724611
2013-04-24T12:00150084826.4-8.924611
2013-04-24T12:00200080120.9-8.523812
2013-04-24T12:00200980020.0-8.02311
2013-04-24T12:00228277518.3-9.623313
2013-04-24T12:00250075516.3-9.521714
2013-04-24T12:00300071211.4-10.722214
2013-04-24T12:0031397009.9-10.822414
2013-04-24T12:0040006301.4-12.425017
2013-04-24T12:004390600-2.4-13.022514
2013-04-24T12:005000555-7.5-18.823419
2013-04-24T12:005500521-8.2-26.223117
2013-04-24T12:005813500-9.6-30.824218
2013-04-24T12:006000488-11.4-31.124519
2013-04-24T12:007000428-18.5-44.823521
2013-04-24T12:007493400-22.6-48.124320
2013-04-24T12:008000373-27.0-49.623820
2013-04-24T12:009000324-35.6-55.123322
2013-04-24T12:009529300-39.5-59.823922
2013-04-24T12:0010000280-43.3-61.524419
2013-04-24T12:0010751250-48.7-66.123019
2013-04-24T12:0011000241-50.2-68.023720
2013-04-24T12:0012000206-55.7-72.524521
2013-04-24T12:0012191200-57.0-73.124820
2013-04-24T12:0013000176-58.3-79.923926
2013-04-24T12:0013999150-60.0-86.924937
2013-04-24T12:0014000150-60.0-86.824937
2013-04-24T12:0015000128-63.1-89.223531
2013-04-24T12:0015377120-64.1-89.923836
2013-04-24T12:0016000108-64.4-94.023130
2013-04-24T12:0016486100-68.2-93.123834
2013-04-24T12:001700092-70.1-94.526032
2013-04-24T12:001711490-70.7-94.926530
2013-04-24T12:001781580-70.0-94.424216
2013-04-24T12:001800078-70.0-94.424916
2013-04-24T12:001819975-69.1-93.725313
2013-04-24T12:001861370-67.0-92.12319
2013-04-24T12:001900066-63.4-93.31886
2013-04-24T12:001955460-64.9-94.31868
2013-04-24T12:002000056-63.8-93.522110
2013-04-24T12:002068050-60.4-91.11259
2013-04-25T00:00137786221.3-0.63502
2013-04-25T00:00150085022.4-2.33423
2013-04-25T00:00150285022.4-2.33423
2013-04-25T00:00200080218.6-4.72649
2013-04-25T00:00202480018.0-4.0268
2013-04-25T00:00229477516.0-6.224411
2013-04-25T00:00250075614.6-8.024415
2013-04-25T00:00300071310.8-11.223518
2013-04-25T00:0031487009.5-11.723018
2013-04-25T00:0040006311.8-13.121419
2013-04-25T00:004399600-2.1-14.221017
2013-04-25T00:005000556-5.0-33.122915
2013-04-25T00:005500522-8.5-33.823318
2013-04-25T00:005825500-11.5-31.223519
2013-04-25T00:006000489-13.2-32.023519
2013-04-25T00:007000428-19.9-48.523316
2013-04-25T00:007496400-21.8-51.623818
2013-04-25T00:008000373-25.4-58.524520
2013-04-25T00:009000325-33.5-54.925722
2013-04-25T00:009546300-38.4-54.126525
2013-04-25T00:0010000281-42.1-57.726524
2013-04-25T00:0010772250-48.5-61.627125
2013-04-25T00:0011000242-48.9-65.626523
2013-04-25T00:0012000207-52.8-73.326829
2013-04-25T00:0012223200-52.4-74.027233
2013-04-25T00:0013000177-56.0-81.426435
2013-04-25T00:0014000151-60.6-83.127031
2013-04-25T00:0014043150-60.8-83.327130
2013-04-25T00:0015000129-63.7-89.624627
2013-04-25T00:0015422120-64.7-90.425628
2013-04-25T00:0016000109-67.4-92.423027
2013-04-25T00:0016520100-70.6-92.724230
2013-04-25T00:001700092-71.9-93.626524
2013-04-25T00:001714290-73.0-92.927021
2013-04-25T00:001783880-70.5-91.021210
2013-04-25T00:001800078-71.2-91.520710
2013-04-25T00:001821975-72.3-94.020713
2013-04-25T00:001862870-69.0-91.420213
2013-04-25T00:001900066-66.6-89.520712
2013-04-25T00:001956360-61.7-92.01946
2013-04-25T00:002000056-60.5-91.21594
2013-04-25T00:002069450-59.5-90.5454
2013-04-25T00:002200041-61.5-91.91177
2013-04-25T00:002208540-60.7-91.31236
2013-04-25T12:00137786427.7-3.22408
2013-04-25T12:00150085223.7-7.323711
2013-04-25T12:00151985023.5-7.523711
2013-04-25T12:00200080418.8-8.322710
2013-04-25T12:00204280018.0-8.02210
2013-04-25T12:00231277515.7-9.223612
2013-04-25T12:00250075813.8-9.422412
2013-04-25T12:0030007149.3-11.921610
2013-04-25T12:0031627007.8-13.820911
2013-04-25T12:0040006312.7-23.022514
2013-04-25T12:004410600-0.4-25.523311
2013-04-25T12:005000557-3.5-33.123214
2013-04-25T12:005500523-7.7-30.724713
2013-04-25T12:005842500-10.3-37.324815
2013-04-25T12:006000490-11.3-40.525315
2013-04-25T12:007000429-17.8-45.526417
2013-04-25T12:007524400-22.0-39.525320
2013-04-25T12:008000375-26.5-31.125920
2013-04-25T12:009000326-33.8-54.425623
2013-04-25T12:009567300-37.2-63.426725
2013-04-25T12:0010000282-40.1-65.627324
2013-04-25T12:0010805250-44.9-71.027731
2013-04-25T12:0011000243-45.3-71.227829
2013-04-25T12:0012000209-50.3-77.027433
2013-04-25T12:0012275200-51.8-78.227434
2013-04-25T12:0013000179-55.5-81.027238
2013-04-25T12:0014000153-60.6-84.926132
2013-04-25T12:0014101150-60.8-87.526230
2013-04-25T12:0015000130-67.7-88.725733
2013-04-25T12:0015455120-69.8-90.426427
2013-04-25T12:0016000110-71.5-91.725427
2013-04-25T12:0016532100-72.9-92.926229
2013-04-25T12:001700092-70.9-91.327520
2013-04-25T12:001715590-70.5-92.626016
2013-04-25T12:001784880-73.7-95.123917
2013-04-25T12:001800078-70.9-92.923314
2013-04-25T12:001823075-69.5-91.821913
2013-04-25T12:001864270-68.8-93.522910
2013-04-25T12:001900066-69.4-93.92954
2013-04-25T12:001956860-66.3-95.31861
2013-04-25T12:002000056-64.1-93.81093
2013-04-26T00:00137786417.8-1.93303
2013-04-26T00:00150085221.4-2.43136
2013-04-26T00:00152085021.2-2.63156
2013-04-26T00:00200080417.0-4.22966
2013-04-26T00:00203980016.0-3.0295
2013-04-26T00:00230877514.7-4.52612
2013-04-26T00:00250075813.4-6.21982
2013-04-26T00:0030007149.6-17.52239
2013-04-26T00:0031587008.8-18.12109
2013-04-26T00:0040006313.0-21.12528
2013-04-26T00:0044116000.1-26.92668
2013-04-26T00:005000557-2.9-39.62678
2013-04-26T00:005500523-6.3-42.125611
2013-04-26T00:005848500-9.0-27.426513
2013-04-26T00:006000490-10.5-28.126414
2013-04-26T00:007000430-18.3-47.325822
2013-04-26T00:007527400-21.9-50.125620
2013-04-26T00:008000375-26.2-44.726620
2013-04-26T00:009000326-33.3-58.928027
2013-04-26T00:009573300-36.7-64.727027
2013-04-26T00:0010000282-39.2-66.627228
2013-04-26T00:0010815250-42.5-71.227742
2013-04-26T00:0011000243-43.7-68.427944
2013-04-26T00:0012000209-48.9-74.127643
2013-04-26T00:0012295200-51.1-75.827246
2013-04-26T00:0013000179-55.8-77.926544
2013-04-26T00:0014000153-61.5-82.526837
2013-04-26T00:0014116150-62.5-83.326637
2013-04-26T00:0015000130-66.5-85.428234
2013-04-26T00:0015471120-66.6-87.926723
2013-04-26T00:0016000110-67.2-90.026819
2013-04-26T00:0016570100-69.4-91.726012
2013-04-26T00:001700093-70.6-92.622810
2013-04-26T00:001719690-71.0-92.921412
2013-04-26T00:001788480-74.2-93.925011
2013-04-26T00:001800078-74.3-94.02537
2013-04-26T00:001826075-74.8-94.42186
2013-04-26T00:001866170-73.4-92.12658
2013-04-26T00:001900066-70.1-90.6523
2013-04-26T00:001957960-67.9-90.51478
2013-04-26T00:002000056-65.7-91.12295
2013-04-26T00:002069550-60.0-90.92563
2013-04-26T12:00137786327.0-4.82206
2013-04-26T12:00150085123.3-11.32489
2013-04-26T12:00151085023.3-11.32489
2013-04-26T12:00200080318.4-11.52518
2013-04-26T12:00203380018.0-11.0257
2013-04-26T12:00230277515.6-10.92477
2013-04-26T12:00250075713.6-11.02257
2013-04-26T12:0030007138.9-11.12067
2013-04-26T12:0031527007.4-11.92017
2013-04-26T12:0040006311.5-24.822511
2013-04-26T12:004399600-0.2-37.722911
2013-04-26T12:005000556-4.1-38.324311
2013-04-26T12:005500522-7.9-39.425011
2013-04-26T12:005830500-10.6-35.524912
2013-04-26T12:006000489-12.2-34.326213
2013-04-26T12:007000428-21.6-26.125513
2013-04-26T12:007500400-22.4-56.326015
2013-04-26T12:008000374-25.4-61.728118
2013-04-26T12:009000325-32.8-67.026821
2013-04-26T12:009553300-36.7-69.827326
2013-04-26T12:0010000281-40.0-67.226727
2013-04-26T12:0010798250-41.2-73.027540
2013-04-26T12:0011000243-41.3-73.127242
2013-04-26T12:0012000209-47.8-77.826845
2013-04-26T12:0012288200-50.4-77.127147
2013-04-26T12:0013000179-54.6-80.327238
2013-04-26T12:0014000153-60.9-85.126040
2013-04-26T12:0014117150-61.4-85.526240
2013-04-26T12:0015000130-65.2-90.825432
2013-04-26T12:0015481120-69.8-92.025830
2013-04-26T12:0016000110-73.7-93.525927
2013-04-26T12:0016547100-74.6-93.026928
2013-04-26T12:001700093-72.9-91.728621
2013-04-26T12:001716390-73.2-91.928917
2013-04-26T12:001785380-72.0-92.1
2013-04-26T12:001800078-71.2-91.5
2013-04-26T12:001823675-70.3-92.4
2013-04-26T12:001864470-71.8-93.6
2013-04-26T12:001900066-66.9-92.02854
2013-04-26T12:001956960-66.2-95.33379
2013-04-26T12:002000056-65.2-94.5419
2013-04-26T12:002068150-63.9-93.7624
2013-04-26T12:002200040-61.3-91.7719
2013-04-26T12:002205640-61.2-91.77310
2013-04-26T12:002386530-54.5-87.09116
2013-04-26T12:002400029-55.2-87.49717
2013-04-26T12:002500025-55.5-87.613610
2013-04-26T12:002502225-55.2-87.41339
2013-04-27T00:00137786119.0-3.23003
2013-04-27T00:00148985022.0-4.12996
2013-04-27T00:00150084921.9-4.23007
2013-04-27T00:00200080118.0-4.03169
2013-04-27T00:00201080017.0-3.0318
2013-04-27T00:00228077515.3-4.03209
2013-04-27T00:00250075513.2-4.83228
2013-04-27T00:0030007118.6-7.93006
2013-04-27T00:0031297007.6-8.42915
2013-04-27T00:0040006291.8-25.62703
2013-04-27T00:0043786000.3-24.12235
2013-04-27T00:005000555-5.9-25.32373
2013-04-27T00:005500520-10.7-27.42343
2013-04-27T00:005802500-11.9-39.72447
2013-04-27T00:006000487-12.5-52.726212
2013-04-27T00:007000427-18.8-57.125616
2013-04-27T00:007480400-23.1-54.525518
2013-04-27T00:008000372-27.5-54.425220
2013-04-27T00:009000323-34.6-59.926625
2013-04-27T00:009519300-38.3-64.326827
2013-04-27T00:0010000280-40.9-69.927627
2013-04-27T00:0010755250-44.9-71.028229
2013-04-27T00:0011000241-45.3-73.228329
2013-04-27T00:0012000207-48.7-75.827038
2013-04-27T00:0012233200-50.0-76.827039
2013-04-27T00:0013000178-54.1-82.526839
2013-04-27T00:0014000152-60.3-84.727040
2013-04-27T00:0014068150-60.2-84.627039
2013-04-27T00:0015000129-65.2-90.827631
2013-04-27T00:0015439120-66.9-89.827028
2013-04-27T00:0016000109-69.0-91.428621
2013-04-27T00:0016532100-69.5-91.825411
2013-04-27T00:001700093-69.9-92.123514
2013-04-27T00:001716090-71.4-93.322816
2013-04-27T00:001785380-72.2-92.323312
2013-04-27T00:001800078-73.2-93.124012
2013-04-27T00:001823175-72.8-92.824111
2013-04-27T00:001864070-69.9-92.12319
2013-04-27T00:001900066-71.0-92.92774
2013-04-27T00:001955460-69.5-91.81373
2013-04-27T00:002000056-70.1-94.51877
2013-04-27T00:002064550-65.8-91.23496
2013-04-27T00:002200040-61.4-91.8817
2013-04-27T00:002201740-61.4-91.8817
2013-04-27T00:002382730-57.2-88.9984
2013-04-27T00:002400029-57.5-89.0605
2013-04-27T12:00137786026.7-1.13103
2013-04-27T12:00148285024.3-6.93112
2013-04-27T12:00150084824.1-7.03062
2013-04-27T12:00200080119.3-7.92863
2013-04-27T12:00200780019.0-7.0282
2013-04-27T12:00227877516.7-9.22792
2013-04-27T12:00250075514.6-9.43283
2013-04-27T12:0030007119.7-9.33444
2013-04-27T12:0031317008.5-9.973
2013-04-27T12:0040006290.4-15.1791
2013-04-27T12:004377600-0.9-28.72523
2013-04-27T12:005000555-6.7-29.82803
2013-04-27T12:005500520-7.2-37.32699
2013-04-27T12:005805500-9.0-42.028012
2013-04-27T12:006000488-10.7-43.227511
2013-04-27T12:007000427-19.7-48.426214
2013-04-27T12:007484400-22.2-59.526819
2013-04-27T12:008000373-26.8-53.828017
2013-04-27T12:009000324-34.0-59.428921
2013-04-27T12:009528300-38.5-60.828421
2013-04-27T12:0010000280-42.4-63.028220
2013-04-27T12:0010754250-48.2-69.627824
2013-04-27T12:0011000241-48.8-67.427225
2013-04-27T12:0012000207-49.3-76.326435
2013-04-27T12:0012219200-49.7-79.226635
2013-04-27T12:0013000177-53.5-82.025733
2013-04-27T12:0014000152-59.2-86.226326
2013-04-27T12:0014061150-59.7-90.626226
2013-04-27T12:0015000129-66.6-91.826431
2013-04-27T12:0015425120-68.5-93.226725
2013-04-27T12:0016000109-71.1-93.026728
2013-04-27T12:0016506100-72.2-93.926417
2013-04-27T12:001700092-73.1-94.623321
2013-04-27T12:001712590-72.3-94.024219
2013-04-27T12:001781580-72.5-94.128415
2013-04-27T12:001800078-72.3-94.029211
2013-04-27T12:001819775-68.4-90.92932
2013-04-27T12:001861070-69.6-94.13391
2013-04-27T12:001900066-69.8-94.21004
2013-04-27T12:001953060-68.1-96.61713
2013-04-27T12:002000056-67.3-96.19211
2013-04-27T12:002063450-65.7-94.914811
2013-04-28T00:00137786021.1-4.13003
2013-04-28T00:00147885023.8-6.23008
2013-04-28T00:00150084823.8-6.22989
2013-04-28T00:00200080019.5-7.72889
2013-04-28T00:00200280019.0-7.0289
2013-04-28T00:00227477517.0-6.72958
2013-04-28T00:00250075514.8-6.63048
2013-04-28T00:00300071110.1-8.53016
2013-04-28T00:0031287008.9-8.63106
2013-04-28T00:0040006291.3-9.31151
2013-04-28T00:004377600-2.0-9.31133
2013-04-28T00:005000554-6.4-17.82651
2013-04-28T00:005500520-7.8-43.22878
2013-04-28T00:005802500-10.3-42.92659
2013-04-28T00:006000487-11.5-45.926711
2013-04-28T00:007000427-18.4-49.029014
2013-04-28T00:007485400-21.6-55.828411
2013-04-28T00:008000373-25.6-56.326614
2013-04-28T00:009000324-34.4-56.526515
2013-04-28T00:009530300-38.9-60.225917
2013-04-28T00:0010000280-42.8-65.226016
2013-04-28T00:0010756250-46.5-70.626021
2013-04-28T00:0011000241-46.7-72.326723
2013-04-28T00:0012000207-50.2-76.925932
2013-04-28T00:0012222200-50.8-77.426132
2013-04-28T00:0013000177-52.6-81.324129
2013-04-28T00:0014000152-59.8-84.325538
2013-04-28T00:0014065150-60.2-84.625738
2013-04-28T00:0015000129-63.6-89.527127
2013-04-28T00:0015440120-65.7-91.126924
2013-04-28T00:0016000109-67.5-90.225517
2013-04-28T00:0016535100-72.2-93.924223
2013-04-28T00:001700092-74.3-94.026125
2013-04-28T00:001715090-72.7-92.727018
2013-04-28T00:001784180-72.0-92.12155
2013-04-28T00:001800078-72.3-92.41757
2013-04-28T00:001822075-73.5-93.317411
2013-04-28T00:001862170-75.0-94.620817
2013-04-28T00:001900066-71.5-91.720612
2013-04-28T00:001953660-66.1-89.12035
2013-04-28T00:002000056-63.2-89.22176
2013-04-28T00:002065250-62.3-92.52154
2013-04-28T00:002200040-61.0-91.5866
2013-04-28T00:002203440-61.2-91.7916
2013-04-28T00:002384130-56.6-88.411511
2013-04-28T12:00137786028.1-3.920011
2013-04-28T12:00147885024.9-10.11816
2013-04-28T12:00150084824.9-10.11828
2013-04-28T12:00200080019.7-10.419113
2013-04-28T12:00200480019.0-10.01912
2013-04-28T12:00227577517.2-10.521011
2013-04-28T12:00250075515.0-11.421112
2013-04-28T12:00300071110.2-11.716813
2013-04-28T12:0031297008.9-12.216212
2013-04-28T12:0040006290.5-15.018912
2013-04-28T12:004376600-2.1-22.619810
2013-04-28T12:005000555-3.2-42.623211
2013-04-28T12:005500521-6.0-44.523911
2013-04-28T12:005812500-8.3-41.52509
2013-04-28T12:006000488-9.8-40.825311
2013-04-28T12:007000428-17.9-53.125413
2013-04-28T12:007500400-21.2-49.625816
2013-04-28T12:008000374-25.0-48.026019
2013-04-28T12:009000325-33.8-40.927022
2013-04-28T12:009549300-37.9-43.727929
2013-04-28T12:0010000281-40.6-45.928539
2013-04-28T12:0010784250-46.5-55.728339
2013-04-28T12:0011000242-46.8-70.828236
2013-04-28T12:0012000208-51.0-70.926445
2013-04-28T12:0012250200-52.0-73.726647
2013-04-28T12:0013000178-54.8-78.626734
2013-04-28T12:0014000152-62.0-84.224840
2013-04-28T12:0014074150-62.1-84.325039
2013-04-28T12:0015000129-65.9-89.026425
2013-04-28T12:0015433120-67.7-90.426520
2013-04-28T12:0016000109-70.8-92.825321
2013-04-28T12:0016514100-73.1-94.625118
2013-04-28T12:001700092-72.2-92.328317
2013-04-28T12:001713290-70.7-91.126810
2013-04-28T12:001782980-73.6-95.021612
2013-04-28T12:001800078-72.8-94.423911
2013-04-28T12:001820875-71.8-93.62589
2013-04-28T12:001862070-68.2-93.11976
2013-04-28T12:001900066-69.3-93.82353
2013-04-28T12:001954260-68.9-93.51298
2013-04-28T12:002000056-66.6-95.6154
2013-04-28T12:002064750-63.9-93.71255
2013-04-28T12:002200040-61.8-92.112413
2013-04-28T12:002203040-62.1-92.3
2013-04-28T12:002383030-57.6-89.2
2013-04-28T12:002400029-56.8-88.5
2013-04-28T12:002498625-54.6-87.011911
2013-04-28T12:002500025-54.1-86.611811
2013-04-29T00:00137786119.6-9.53102
2013-04-29T00:00148685023.8-12.42677
2013-04-29T00:00150084923.7-12.52677
2013-04-29T00:00200080119.3-13.026910
2013-04-29T00:00201080019.0-13.0269
2013-04-29T00:00228177516.8-13.82729
2013-04-29T00:00250075514.7-13.42679
2013-04-29T00:00300071110.0-14.62729
2013-04-29T00:0031347008.6-14.42748
2013-04-29T00:0040006292.6-29.925210
2013-04-29T00:0043846001.4-43.224214
2013-04-29T00:005000556-2.6-37.223317
2013-04-29T00:005500521-6.9-40.423618
2013-04-29T00:005822500-9.1-46.824419
2013-04-29T00:006000489-10.5-51.324619
2013-04-29T00:007000429-16.5-24.925023
2013-04-29T00:007514400-19.6-30.126326
2013-04-29T00:008000375-23.8-34.225825
2013-04-29T00:009000326-30.7-47.426630
2013-04-29T00:009583300-34.5-54.227433
2013-04-29T00:0010000283-37.9-56.327133
2013-04-29T00:0010830250-45.1-62.426533
2013-04-29T00:0011000244-46.8-62.726533
2013-04-29T00:0012000209-53.0-66.325341
2013-04-29T00:0012283200-53.4-70.025546
2013-04-29T00:0013000179-55.0-77.325538
2013-04-29T00:0014000153-62.6-82.224641
2013-04-29T00:0014100150-62.8-82.424740
2013-04-29T00:0015000129-68.0-86.624736
2013-04-29T00:0015454120-68.9-87.325729
2013-04-29T00:0016000110-69.1-87.526723
2013-04-29T00:0016545100-68.4-89.320013
2013-04-29T00:001700093-72.1-92.220916
2013-04-29T00:001716890-73.7-93.521217
2013-04-29T00:001784880-75.8-93.023914
2013-04-29T00:001800078-73.4-91.023011
2013-04-29T00:001822475-74.5-91.922912
2013-04-29T00:001862870-69.9-89.22394
2013-04-29T00:001900066-68.8-89.61165
2013-04-29T00:001954660-69.2-91.51368
2013-04-29T00:002000056-65.7-91.21369
2013-04-29T00:002065850-62.3-92.5836
2013-04-29T00:002200040-60.1-90.9749
2013-04-29T00:002203840-60.2-91.07410
2013-04-29T12:00137786229.71.32504
2013-04-29T12:00150085025.6-3.82717
2013-04-29T12:00150185025.6-3.82717
2013-04-29T12:00200080321.2-4.72662
2013-04-29T12:00202880020.0-4.0271
2013-04-29T12:00230077518.1-5.12206
2013-04-29T12:00250075716.1-5.62276
2013-04-29T12:00300071311.1-6.22377
2013-04-29T12:0031577009.7-6.62426
2013-04-29T12:0040006311.6-8.22586
2013-04-29T12:004408600-2.4-9.12505
2013-04-29T12:005000557-5.9-10.824212
2013-04-29T12:005500522-7.7-17.123415
2013-04-29T12:005834500-9.5-16.024717
2013-04-29T12:006000489-10.2-17.524319
2013-04-29T12:007000429-17.1-21.925225
2013-04-29T12:007524400-20.4-25.824630
2013-04-29T12:008000375-23.2-29.224033
2013-04-29T12:009000326-31.1-34.124634
2013-04-29T12:009593300-35.9-42.025137
2013-04-29T12:0010000283-39.1-48.625338
2013-04-29T12:0010835250-45.4-59.324837
2013-04-29T12:0011000244-46.9-60.224637
2013-04-29T12:0012000209-49.9-72.024246
2013-04-29T12:0012298200-52.2-72.824647
2013-04-29T12:0013000179-55.5-76.525338
2013-04-29T12:0014000153-63.7-82.124143
2013-04-29T12:0014112150-64.6-82.923944
2013-04-29T12:0015000130-66.4-86.4
2013-04-29T12:0015463120-67.5-88.627331
2013-04-29T12:0016000110-68.1-90.727218
2013-04-29T12:0016553100-71.7-93.523915
2013-04-29T12:001700093-74.9-94.522717
2013-04-29T12:001716990-75.4-94.924216
2013-04-29T12:001785480-72.9-92.918114
2013-04-29T12:001800078-73.1-93.01939
2013-04-29T12:001823275-73.4-93.31917
2013-04-29T12:001863670-71.8-93.617110
2013-04-29T12:001900066-72.0-93.81836
2013-04-29T12:001955060-67.1-92.2
2013-04-29T12:002000056-63.1-93.0
2013-04-29T12:002066850-62.8-92.9
2013-04-29T12:002200040-61.8-92.1
2013-04-29T12:002204640-61.5-91.9
2013-04-29T12:002384330-58.1-89.58615
2013-04-29T12:002400029-59.0-90.19215
2013-04-29T12:002499625-54.4-86.88215
2013-04-29T12:002500025-54.4-86.88215
2013-04-29T12:002600021-50.7-84.3
2013-04-30T00:00137786420.6-2.4701
2013-04-30T00:00150085126.1-3.433
2013-04-30T00:00151585026.0-3.53584
2013-04-30T00:00200080421.8-4.22275
2013-04-30T00:00204380021.0-4.0225
2013-04-30T00:00231777518.8-5.22116
2013-04-30T00:00250075917.0-5.42016
2013-04-30T00:00300071512.4-6.52136
2013-04-30T00:00317670010.7-6.62246
2013-04-30T00:0040006332.9-8.72369
2013-04-30T00:004432600-1.2-8.12438
2013-04-30T00:005000559-5.1-9.325711
2013-04-30T00:005500524-8.8-11.324510
2013-04-30T00:005860500-10.4-16.922613
2013-04-30T00:006000491-11.6-19.222613
2013-04-30T00:007000430-17.5-21.624325
2013-04-30T00:007542400-20.7-24.123831
2013-04-30T00:008000376-23.9-33.023734
2013-04-30T00:009000327-31.9-52.024831
2013-04-30T00:009603300-36.2-54.925738
2013-04-30T00:0010000283-39.4-52.125538
2013-04-30T00:0010839250-46.5-57.025841
2013-04-30T00:0011000244-47.2-62.625741
2013-04-30T00:0012000210-50.2-70.225448
2013-04-30T00:0012305200-52.9-70.225049
2013-04-30T00:0013000180-53.6-77.726339
2013-04-30T00:0014000153-61.2-82.225041
2013-04-30T00:0014133150-61.2-82.325140
2013-04-30T00:0015000130-63.5-89.524032
2013-04-30T00:0015507120-67.7-92.623630
2013-04-30T00:0016000111-72.0-92.124827
2013-04-30T00:0016582100-74.6-92.023219
2013-04-30T00:001700093-73.8-91.322119
2013-04-30T00:001719690-74.9-92.221120
2013-04-30T00:001787780-74.3-90.920412
2013-04-30T00:001800078-72.4-90.217910
2013-04-30T00:001825675-73.3-90.918610
2013-04-30T00:001866070-73.2-91.92047
2013-04-30T00:001900066-72.2-91.1401
2013-04-30T00:001956660-69.0-89.81514
2013-04-30T00:002000056-66.4-89.413410
2013-04-30T00:002066950-64.6-90.3997
2013-04-30T00:002200040-61.4-91.84210
2013-04-30T00:002204540-61.2-91.73910
2013-04-30T12:00137786531.4-0.32105
2013-04-30T12:00150085328.1-6.31521
2013-04-30T12:00152785027.5-6.81421
2013-04-30T12:00200080522.9-6.92298
2013-04-30T12:00205780022.0-7.0238
2013-04-30T12:00233277519.9-8.32317
2013-04-30T12:00250076018.4-7.82358
2013-04-30T12:00300071613.3-8.52348
2013-04-30T12:00319470011.4-9.02356
2013-04-30T12:0040006353.7-10.32358
2013-04-30T12:004452600-0.7-11.42508
2013-04-30T12:005000560-5.8-13.42368
2013-04-30T12:005500525-10.2-16.123810
2013-04-30T12:005876500-10.5-21.523113
2013-04-30T12:006000492-11.7-23.823614
2013-04-30T12:007000432-16.7-49.725920
2013-04-30T12:007563400-21.1-55.426018
2013-04-30T12:008000377-23.9-57.425221
2013-04-30T12:009000328-31.5-40.226221
2013-04-30T12:009625300-34.7-47.327134
2013-04-30T12:0010000284-36.7-56.026636
2013-04-30T12:0010873250-45.0-56.827338
2013-04-30T12:0011000245-46.0-58.027638
2013-04-30T12:0012000211-51.9-68.124844
2013-04-30T12:0012336200-52.8-71.625245
2013-04-30T12:0013000180-56.3-76.126639
2013-04-30T12:0014000154-62.7-82.324834
2013-04-30T12:0014151150-63.2-82.725135
2013-04-30T12:0015000131-66.3-87.625133
2013-04-30T12:0015504120-69.1-89.825329
2013-04-30T12:0016000110-71.7-91.924523
2013-04-30T12:0016578100-75.4-93.722023
2013-04-30T12:001700093-78.1-94.923621
2013-04-30T12:001718290-76.4-93.526119
2013-04-30T12:001786880-74.2-92.72396
2013-04-30T12:001800078-75.2-93.52476
2013-04-30T12:001824375-75.0-93.32262
2013-04-30T12:001864470-73.7-93.5715
2013-04-30T12:001900066-72.6-94.21247
2013-04-30T12:001955660-68.9-93.5857
2013-04-30T12:002000056-65.2-90.74811
2013-04-30T12:002066150-65.6-94.910219
2013-04-30T12:002200040-62.0-92.31177
2013-04-30T12:002202540-62.0-92.31157
2013-04-30T12:002382830-57.8-89.310110
2013-04-30T12:002400029-58.4-89.71169